<?xml version="1.0" encoding="UTF-8" standalone="no" ?>
<gpx xmlns="http://www.topografix.com/GPX/1/1" xmlns:xsi="http://www.w3.org/2001/XMLSchema-instance" xsi:schemaLocation="http://www.topografix.com/GPX/1/1 http://www.topografix.com/GPX/1/1/gpx.xsd" version="1.1" creator="VisuGPX - https://www.visugpx.com">
  <metadata>
    <name>Mont de la Charvaz (73 Jura)</name>
    <desc><![CDATA[Départ d'Ontex
Photos et infos sur : http://www.photosrandos.fr]]></desc>
  </metadata>
  <trk>
    <name><![CDATA[2023-04-09 Mont de la Charvaz-16520004]]></name>
    <trkseg>
      <trkpt lat="45.74932" lon="5.83131">
        <ele>605</ele>
        <time>2023-04-09T20:33:40Z</time>
      </trkpt>
      <trkpt lat="45.74927" lon="5.83119">
        <ele>610</ele>
        <time>2023-04-09T20:33:53Z</time>
      </trkpt>
      <trkpt lat="45.74953" lon="5.8314">
        <ele>599</ele>
        <time>2023-04-09T20:34:33Z</time>
      </trkpt>
      <trkpt lat="45.74954" lon="5.83138">
        <ele>599</ele>
        <time>2023-04-09T20:34:35Z</time>
      </trkpt>
      <trkpt lat="45.74946" lon="5.83144">
        <ele>598</ele>
        <time>2023-04-09T20:34:47Z</time>
      </trkpt>
      <trkpt lat="45.74958" lon="5.83127">
        <ele>602</ele>
        <time>2023-04-09T20:35:10Z</time>
      </trkpt>
      <trkpt lat="45.74968" lon="5.83123">
        <ele>602</ele>
        <time>2023-04-09T20:35:24Z</time>
      </trkpt>
      <trkpt lat="45.74975" lon="5.83114">
        <ele>604</ele>
        <time>2023-04-09T20:35:36Z</time>
      </trkpt>
      <trkpt lat="45.74987" lon="5.83071">
        <ele>618</ele>
        <time>2023-04-09T20:36:19Z</time>
      </trkpt>
      <trkpt lat="45.74993" lon="5.8306">
        <ele>621</ele>
        <time>2023-04-09T20:36:32Z</time>
      </trkpt>
      <trkpt lat="45.75001" lon="5.83053">
        <ele>622</ele>
        <time>2023-04-09T20:36:45Z</time>
      </trkpt>
      <trkpt lat="45.7501" lon="5.83036">
        <ele>627</ele>
        <time>2023-04-09T20:37:05Z</time>
      </trkpt>
      <trkpt lat="45.75021" lon="5.8303">
        <ele>627</ele>
        <time>2023-04-09T20:37:20Z</time>
      </trkpt>
      <trkpt lat="45.75042" lon="5.8303">
        <ele>624</ele>
        <time>2023-04-09T20:37:48Z</time>
      </trkpt>
      <trkpt lat="45.75038" lon="5.83018">
        <ele>629</ele>
        <time>2023-04-09T20:38:01Z</time>
      </trkpt>
      <trkpt lat="45.75041" lon="5.83016">
        <ele>629</ele>
        <time>2023-04-09T20:38:05Z</time>
      </trkpt>
      <trkpt lat="45.75052" lon="5.83016">
        <ele>627</ele>
        <time>2023-04-09T20:38:20Z</time>
      </trkpt>
      <trkpt lat="45.75054" lon="5.82999">
        <ele>633</ele>
        <time>2023-04-09T20:38:36Z</time>
      </trkpt>
      <trkpt lat="45.7508" lon="5.82935">
        <ele>643</ele>
        <time>2023-04-09T20:39:45Z</time>
      </trkpt>
      <trkpt lat="45.75071" lon="5.82939">
        <ele>644</ele>
        <time>2023-04-09T20:39:57Z</time>
      </trkpt>
      <trkpt lat="45.75075" lon="5.82927">
        <ele>646</ele>
        <time>2023-04-09T20:40:10Z</time>
      </trkpt>
      <trkpt lat="45.75099" lon="5.82905">
        <ele>647</ele>
        <time>2023-04-09T20:40:48Z</time>
      </trkpt>
      <trkpt lat="45.75119" lon="5.82858">
        <ele>658</ele>
        <time>2023-04-09T20:41:39Z</time>
      </trkpt>
      <trkpt lat="45.75132" lon="5.82838">
        <ele>661</ele>
        <time>2023-04-09T20:42:05Z</time>
      </trkpt>
      <trkpt lat="45.75129" lon="5.82812">
        <ele>669</ele>
        <time>2023-04-09T20:42:29Z</time>
      </trkpt>
      <trkpt lat="45.75154" lon="5.82787">
        <ele>670</ele>
        <time>2023-04-09T20:43:10Z</time>
      </trkpt>
      <trkpt lat="45.75153" lon="5.82774">
        <ele>674</ele>
        <time>2023-04-09T20:43:22Z</time>
      </trkpt>
      <trkpt lat="45.75158" lon="5.82762">
        <ele>676</ele>
        <time>2023-04-09T20:43:35Z</time>
      </trkpt>
      <trkpt lat="45.75178" lon="5.82727">
        <ele>680</ele>
        <time>2023-04-09T20:44:17Z</time>
      </trkpt>
      <trkpt lat="45.75211" lon="5.82679">
        <ele>685</ele>
        <time>2023-04-09T20:45:20Z</time>
      </trkpt>
      <trkpt lat="45.75233" lon="5.82591">
        <ele>697</ele>
        <time>2023-04-09T20:46:47Z</time>
      </trkpt>
      <trkpt lat="45.75239" lon="5.8258">
        <ele>699</ele>
        <time>2023-04-09T20:47:00Z</time>
      </trkpt>
      <trkpt lat="45.7524" lon="5.82569">
        <ele>701</ele>
        <time>2023-04-09T20:47:10Z</time>
      </trkpt>
      <trkpt lat="45.75253" lon="5.82545">
        <ele>705</ele>
        <time>2023-04-09T20:47:38Z</time>
      </trkpt>
      <trkpt lat="45.75274" lon="5.82519">
        <ele>708</ele>
        <time>2023-04-09T20:48:15Z</time>
      </trkpt>
      <trkpt lat="45.75279" lon="5.82507">
        <ele>711</ele>
        <time>2023-04-09T20:48:29Z</time>
      </trkpt>
      <trkpt lat="45.75278" lon="5.82505">
        <ele>711</ele>
        <time>2023-04-09T20:48:31Z</time>
      </trkpt>
      <trkpt lat="45.75282" lon="5.82504">
        <ele>711</ele>
        <time>2023-04-09T20:48:36Z</time>
      </trkpt>
      <trkpt lat="45.75281" lon="5.82499">
        <ele>712</ele>
        <time>2023-04-09T20:48:41Z</time>
      </trkpt>
      <trkpt lat="45.75285" lon="5.82509">
        <ele>710</ele>
        <time>2023-04-09T20:48:52Z</time>
      </trkpt>
      <trkpt lat="45.75287" lon="5.82502">
        <ele>711</ele>
        <time>2023-04-09T20:48:59Z</time>
      </trkpt>
      <trkpt lat="45.75297" lon="5.82498">
        <ele>712</ele>
        <time>2023-04-09T20:49:13Z</time>
      </trkpt>
      <trkpt lat="45.75314" lon="5.82485">
        <ele>713</ele>
        <time>2023-04-09T20:49:38Z</time>
      </trkpt>
      <trkpt lat="45.7532" lon="5.82474">
        <ele>714</ele>
        <time>2023-04-09T20:49:51Z</time>
      </trkpt>
      <trkpt lat="45.75339" lon="5.82469">
        <ele>714</ele>
        <time>2023-04-09T20:50:17Z</time>
      </trkpt>
      <trkpt lat="45.75348" lon="5.82462">
        <ele>713</ele>
        <time>2023-04-09T20:50:31Z</time>
      </trkpt>
      <trkpt lat="45.7536" lon="5.8244">
        <ele>715</ele>
        <time>2023-04-09T20:50:57Z</time>
      </trkpt>
      <trkpt lat="45.75363" lon="5.82427">
        <ele>717</ele>
        <time>2023-04-09T20:51:10Z</time>
      </trkpt>
      <trkpt lat="45.75375" lon="5.82406">
        <ele>719</ele>
        <time>2023-04-09T20:51:35Z</time>
      </trkpt>
      <trkpt lat="45.7541" lon="5.82325">
        <ele>723</ele>
        <time>2023-04-09T20:53:04Z</time>
      </trkpt>
      <trkpt lat="45.75424" lon="5.82307">
        <ele>723</ele>
        <time>2023-04-09T20:53:29Z</time>
      </trkpt>
      <trkpt lat="45.7545" lon="5.8229">
        <ele>720</ele>
        <time>2023-04-09T20:54:07Z</time>
      </trkpt>
      <trkpt lat="45.7546" lon="5.82287">
        <ele>719</ele>
        <time>2023-04-09T20:54:20Z</time>
      </trkpt>
      <trkpt lat="45.75468" lon="5.82281">
        <ele>718</ele>
        <time>2023-04-09T20:54:33Z</time>
      </trkpt>
      <trkpt lat="45.75551" lon="5.82241">
        <ele>709</ele>
        <time>2023-04-09T20:56:29Z</time>
      </trkpt>
      <trkpt lat="45.75558" lon="5.82233">
        <ele>709</ele>
        <time>2023-04-09T20:56:41Z</time>
      </trkpt>
      <trkpt lat="45.75563" lon="5.8222">
        <ele>708</ele>
        <time>2023-04-09T20:56:55Z</time>
      </trkpt>
      <trkpt lat="45.75555" lon="5.82195">
        <ele>709</ele>
        <time>2023-04-09T20:57:21Z</time>
      </trkpt>
      <trkpt lat="45.75551" lon="5.82168">
        <ele>709</ele>
        <time>2023-04-09T20:57:46Z</time>
      </trkpt>
      <trkpt lat="45.75541" lon="5.8213">
        <ele>708</ele>
        <time>2023-04-09T20:58:24Z</time>
      </trkpt>
      <trkpt lat="45.75533" lon="5.8212">
        <ele>709</ele>
        <time>2023-04-09T20:58:38Z</time>
      </trkpt>
      <trkpt lat="45.75507" lon="5.82107">
        <ele>713</ele>
        <time>2023-04-09T20:59:15Z</time>
      </trkpt>
      <trkpt lat="45.75497" lon="5.82099">
        <ele>714</ele>
        <time>2023-04-09T20:59:30Z</time>
      </trkpt>
      <trkpt lat="45.75461" lon="5.82053">
        <ele>715</ele>
        <time>2023-04-09T21:00:35Z</time>
      </trkpt>
      <trkpt lat="45.75445" lon="5.8206">
        <ele>718</ele>
        <time>2023-04-09T21:00:57Z</time>
      </trkpt>
      <trkpt lat="45.75439" lon="5.82058">
        <ele>718</ele>
        <time>2023-04-09T21:01:05Z</time>
      </trkpt>
      <trkpt lat="45.75444" lon="5.82046">
        <ele>717</ele>
        <time>2023-04-09T21:01:18Z</time>
      </trkpt>
      <trkpt lat="45.75453" lon="5.8204">
        <ele>716</ele>
        <time>2023-04-09T21:01:32Z</time>
      </trkpt>
      <trkpt lat="45.75459" lon="5.82015">
        <ele>713</ele>
        <time>2023-04-09T21:01:56Z</time>
      </trkpt>
      <trkpt lat="45.7545" lon="5.82011">
        <ele>714</ele>
        <time>2023-04-09T21:02:09Z</time>
      </trkpt>
      <trkpt lat="45.75431" lon="5.8202">
        <ele>718</ele>
        <time>2023-04-09T21:02:36Z</time>
      </trkpt>
      <trkpt lat="45.75421" lon="5.82022">
        <ele>719</ele>
        <time>2023-04-09T21:02:49Z</time>
      </trkpt>
      <trkpt lat="45.75418" lon="5.82034">
        <ele>720</ele>
        <time>2023-04-09T21:03:01Z</time>
      </trkpt>
      <trkpt lat="45.75412" lon="5.82045">
        <ele>721</ele>
        <time>2023-04-09T21:03:14Z</time>
      </trkpt>
      <trkpt lat="45.75412" lon="5.82058">
        <ele>722</ele>
        <time>2023-04-09T21:03:26Z</time>
      </trkpt>
      <trkpt lat="45.7542" lon="5.82067">
        <ele>721</ele>
        <time>2023-04-09T21:03:40Z</time>
      </trkpt>
      <trkpt lat="45.75425" lon="5.82078">
        <ele>721</ele>
        <time>2023-04-09T21:03:52Z</time>
      </trkpt>
      <trkpt lat="45.75427" lon="5.82091">
        <ele>721</ele>
        <time>2023-04-09T21:04:04Z</time>
      </trkpt>
      <trkpt lat="45.75437" lon="5.82098">
        <ele>721</ele>
        <time>2023-04-09T21:04:19Z</time>
      </trkpt>
      <trkpt lat="45.75437" lon="5.82113">
        <ele>722</ele>
        <time>2023-04-09T21:04:33Z</time>
      </trkpt>
      <trkpt lat="45.7544" lon="5.82126">
        <ele>723</ele>
        <time>2023-04-09T21:04:46Z</time>
      </trkpt>
      <trkpt lat="45.75425" lon="5.8214">
        <ele>726</ele>
        <time>2023-04-09T21:05:10Z</time>
      </trkpt>
      <trkpt lat="45.75398" lon="5.8215">
        <ele>729</ele>
        <time>2023-04-09T21:05:47Z</time>
      </trkpt>
      <trkpt lat="45.75391" lon="5.82157">
        <ele>730</ele>
        <time>2023-04-09T21:05:58Z</time>
      </trkpt>
      <trkpt lat="45.75379" lon="5.82177">
        <ele>732</ele>
        <time>2023-04-09T21:06:23Z</time>
      </trkpt>
      <trkpt lat="45.75361" lon="5.82188">
        <ele>734</ele>
        <time>2023-04-09T21:06:49Z</time>
      </trkpt>
      <trkpt lat="45.75345" lon="5.82204">
        <ele>736</ele>
        <time>2023-04-09T21:07:15Z</time>
      </trkpt>
      <trkpt lat="45.75335" lon="5.82223">
        <ele>738</ele>
        <time>2023-04-09T21:07:37Z</time>
      </trkpt>
      <trkpt lat="45.7531" lon="5.82244">
        <ele>742</ele>
        <time>2023-04-09T21:08:16Z</time>
      </trkpt>
      <trkpt lat="45.75303" lon="5.82254">
        <ele>743</ele>
        <time>2023-04-09T21:08:29Z</time>
      </trkpt>
      <trkpt lat="45.75278" lon="5.8231">
        <ele>742</ele>
        <time>2023-04-09T21:09:31Z</time>
      </trkpt>
      <trkpt lat="45.75281" lon="5.82337">
        <ele>739</ele>
        <time>2023-04-09T21:09:56Z</time>
      </trkpt>
      <trkpt lat="45.75274" lon="5.82375">
        <ele>733</ele>
        <time>2023-04-09T21:10:33Z</time>
      </trkpt>
      <trkpt lat="45.75274" lon="5.82402">
        <ele>729</ele>
        <time>2023-04-09T21:10:58Z</time>
      </trkpt>
      <trkpt lat="45.75281" lon="5.8241">
        <ele>727</ele>
        <time>2023-04-09T21:11:10Z</time>
      </trkpt>
      <trkpt lat="45.75301" lon="5.82411">
        <ele>725</ele>
        <time>2023-04-09T21:11:37Z</time>
      </trkpt>
      <trkpt lat="45.75278" lon="5.82435">
        <ele>723</ele>
        <time>2023-04-09T21:12:15Z</time>
      </trkpt>
      <trkpt lat="45.75266" lon="5.82455">
        <ele>720</ele>
        <time>2023-04-09T21:12:39Z</time>
      </trkpt>
      <trkpt lat="45.75248" lon="5.8247">
        <ele>719</ele>
        <time>2023-04-09T21:13:07Z</time>
      </trkpt>
      <trkpt lat="45.75228" lon="5.82475">
        <ele>719</ele>
        <time>2023-04-09T21:13:34Z</time>
      </trkpt>
      <trkpt lat="45.75209" lon="5.82475">
        <ele>720</ele>
        <time>2023-04-09T21:13:59Z</time>
      </trkpt>
      <trkpt lat="45.75171" lon="5.82482">
        <ele>721</ele>
        <time>2023-04-09T21:14:51Z</time>
      </trkpt>
      <trkpt lat="45.75152" lon="5.82491">
        <ele>720</ele>
        <time>2023-04-09T21:15:17Z</time>
      </trkpt>
      <trkpt lat="45.75143" lon="5.82498">
        <ele>719</ele>
        <time>2023-04-09T21:15:31Z</time>
      </trkpt>
      <trkpt lat="45.75129" lon="5.82515">
        <ele>718</ele>
        <time>2023-04-09T21:15:55Z</time>
      </trkpt>
      <trkpt lat="45.75106" lon="5.82561">
        <ele>713</ele>
        <time>2023-04-09T21:16:48Z</time>
      </trkpt>
      <trkpt lat="45.75098" lon="5.8257">
        <ele>713</ele>
        <time>2023-04-09T21:17:02Z</time>
      </trkpt>
      <trkpt lat="45.75089" lon="5.82575">
        <ele>713</ele>
        <time>2023-04-09T21:17:15Z</time>
      </trkpt>
      <trkpt lat="45.75041" lon="5.82618">
        <ele>716</ele>
        <time>2023-04-09T21:18:30Z</time>
      </trkpt>
      <trkpt lat="45.75002" lon="5.82658">
        <ele>721</ele>
        <time>2023-04-09T21:19:34Z</time>
      </trkpt>
      <trkpt lat="45.74996" lon="5.82668">
        <ele>722</ele>
        <time>2023-04-09T21:19:46Z</time>
      </trkpt>
      <trkpt lat="45.74964" lon="5.82699">
        <ele>726</ele>
        <time>2023-04-09T21:20:38Z</time>
      </trkpt>
      <trkpt lat="45.74955" lon="5.82705">
        <ele>727</ele>
        <time>2023-04-09T21:20:51Z</time>
      </trkpt>
      <trkpt lat="45.74882" lon="5.8279">
        <ele>722</ele>
        <time>2023-04-09T21:22:57Z</time>
      </trkpt>
      <trkpt lat="45.74849" lon="5.82817">
        <ele>721</ele>
        <time>2023-04-09T21:23:47Z</time>
      </trkpt>
      <trkpt lat="45.74802" lon="5.82843">
        <ele>717</ele>
        <time>2023-04-09T21:24:55Z</time>
      </trkpt>
      <trkpt lat="45.74812" lon="5.82842">
        <ele>717</ele>
        <time>2023-04-09T21:25:08Z</time>
      </trkpt>
      <trkpt lat="45.74812" lon="5.82847">
        <ele>716</ele>
        <time>2023-04-09T21:25:13Z</time>
      </trkpt>
      <trkpt lat="45.74807" lon="5.82844">
        <ele>717</ele>
        <time>2023-04-09T21:25:20Z</time>
      </trkpt>
      <trkpt lat="45.74806" lon="5.82846">
        <ele>716</ele>
        <time>2023-04-09T21:25:22Z</time>
      </trkpt>
      <trkpt lat="45.74803" lon="5.82837">
        <ele>719</ele>
        <time>2023-04-09T21:25:31Z</time>
      </trkpt>
      <trkpt lat="45.74794" lon="5.82784">
        <ele>733</ele>
        <time>2023-04-09T21:26:22Z</time>
      </trkpt>
      <trkpt lat="45.74788" lon="5.82774">
        <ele>736</ele>
        <time>2023-04-09T21:26:35Z</time>
      </trkpt>
      <trkpt lat="45.7478" lon="5.82767">
        <ele>738</ele>
        <time>2023-04-09T21:26:47Z</time>
      </trkpt>
      <trkpt lat="45.7477" lon="5.82764">
        <ele>739</ele>
        <time>2023-04-09T21:27:01Z</time>
      </trkpt>
      <trkpt lat="45.74744" lon="5.82776">
        <ele>738</ele>
        <time>2023-04-09T21:27:37Z</time>
      </trkpt>
      <trkpt lat="45.74728" lon="5.82792">
        <ele>735</ele>
        <time>2023-04-09T21:28:03Z</time>
      </trkpt>
      <trkpt lat="45.74708" lon="5.82795">
        <ele>737</ele>
        <time>2023-04-09T21:28:30Z</time>
      </trkpt>
      <trkpt lat="45.74702" lon="5.82785">
        <ele>739</ele>
        <time>2023-04-09T21:28:42Z</time>
      </trkpt>
      <trkpt lat="45.7469" lon="5.8275">
        <ele>748</ele>
        <time>2023-04-09T21:29:19Z</time>
      </trkpt>
      <trkpt lat="45.74682" lon="5.82742">
        <ele>751</ele>
        <time>2023-04-09T21:29:32Z</time>
      </trkpt>
      <trkpt lat="45.74664" lon="5.82742">
        <ele>752</ele>
        <time>2023-04-09T21:29:56Z</time>
      </trkpt>
      <trkpt lat="45.74676" lon="5.82747">
        <ele>750</ele>
        <time>2023-04-09T21:30:12Z</time>
      </trkpt>
      <trkpt lat="45.74667" lon="5.82752">
        <ele>750</ele>
        <time>2023-04-09T21:30:25Z</time>
      </trkpt>
      <trkpt lat="45.74677" lon="5.8275">
        <ele>749</ele>
        <time>2023-04-09T21:30:39Z</time>
      </trkpt>
      <trkpt lat="45.74685" lon="5.82742">
        <ele>751</ele>
        <time>2023-04-09T21:30:52Z</time>
      </trkpt>
      <trkpt lat="45.74681" lon="5.8273">
        <ele>754</ele>
        <time>2023-04-09T21:31:04Z</time>
      </trkpt>
      <trkpt lat="45.74674" lon="5.82721">
        <ele>756</ele>
        <time>2023-04-09T21:31:17Z</time>
      </trkpt>
      <trkpt lat="45.74679" lon="5.82717">
        <ele>757</ele>
        <time>2023-04-09T21:31:24Z</time>
      </trkpt>
      <trkpt lat="45.7468" lon="5.82713">
        <ele>758</ele>
        <time>2023-04-09T21:31:28Z</time>
      </trkpt>
      <trkpt lat="45.7468" lon="5.82697">
        <ele>762</ele>
        <time>2023-04-09T21:31:43Z</time>
      </trkpt>
      <trkpt lat="45.74686" lon="5.82687">
        <ele>764</ele>
        <time>2023-04-09T21:31:55Z</time>
      </trkpt>
      <trkpt lat="45.74688" lon="5.82678">
        <ele>766</ele>
        <time>2023-04-09T21:32:04Z</time>
      </trkpt>
      <trkpt lat="45.74698" lon="5.82663">
        <ele>769</ele>
        <time>2023-04-09T21:32:24Z</time>
      </trkpt>
      <trkpt lat="45.74707" lon="5.82658">
        <ele>770</ele>
        <time>2023-04-09T21:32:36Z</time>
      </trkpt>
      <trkpt lat="45.74734" lon="5.8261">
        <ele>779</ele>
        <time>2023-04-09T21:33:34Z</time>
      </trkpt>
      <trkpt lat="45.74742" lon="5.82603">
        <ele>781</ele>
        <time>2023-04-09T21:33:46Z</time>
      </trkpt>
      <trkpt lat="45.74748" lon="5.82593">
        <ele>784</ele>
        <time>2023-04-09T21:33:59Z</time>
      </trkpt>
      <trkpt lat="45.74758" lon="5.8257">
        <ele>788</ele>
        <time>2023-04-09T21:34:24Z</time>
      </trkpt>
      <trkpt lat="45.74765" lon="5.8256">
        <ele>789</ele>
        <time>2023-04-09T21:34:37Z</time>
      </trkpt>
      <trkpt lat="45.74775" lon="5.82538">
        <ele>793</ele>
        <time>2023-04-09T21:35:01Z</time>
      </trkpt>
      <trkpt lat="45.74781" lon="5.82506">
        <ele>800</ele>
        <time>2023-04-09T21:35:32Z</time>
      </trkpt>
      <trkpt lat="45.74784" lon="5.82504">
        <ele>800</ele>
        <time>2023-04-09T21:35:37Z</time>
      </trkpt>
      <trkpt lat="45.74786" lon="5.82463">
        <ele>806</ele>
        <time>2023-04-09T21:36:15Z</time>
      </trkpt>
      <trkpt lat="45.7479" lon="5.8245">
        <ele>807</ele>
        <time>2023-04-09T21:36:28Z</time>
      </trkpt>
      <trkpt lat="45.74805" lon="5.82435">
        <ele>810</ele>
        <time>2023-04-09T21:36:53Z</time>
      </trkpt>
      <trkpt lat="45.7481" lon="5.82424">
        <ele>812</ele>
        <time>2023-04-09T21:37:05Z</time>
      </trkpt>
      <trkpt lat="45.7481" lon="5.82415">
        <ele>813</ele>
        <time>2023-04-09T21:37:13Z</time>
      </trkpt>
      <trkpt lat="45.74806" lon="5.82419">
        <ele>812</ele>
        <time>2023-04-09T21:37:20Z</time>
      </trkpt>
      <trkpt lat="45.74813" lon="5.82421">
        <ele>812</ele>
        <time>2023-04-09T21:37:29Z</time>
      </trkpt>
      <trkpt lat="45.7482" lon="5.82432">
        <ele>811</ele>
        <time>2023-04-09T21:37:43Z</time>
      </trkpt>
      <trkpt lat="45.74822" lon="5.82447">
        <ele>808</ele>
        <time>2023-04-09T21:37:57Z</time>
      </trkpt>
      <trkpt lat="45.7482" lon="5.82449">
        <ele>808</ele>
        <time>2023-04-09T21:38:01Z</time>
      </trkpt>
      <trkpt lat="45.74819" lon="5.82446">
        <ele>808</ele>
        <time>2023-04-09T21:38:04Z</time>
      </trkpt>
      <trkpt lat="45.74822" lon="5.82432">
        <ele>811</ele>
        <time>2023-04-09T21:38:17Z</time>
      </trkpt>
      <trkpt lat="45.74812" lon="5.8241">
        <ele>813</ele>
        <time>2023-04-09T21:38:42Z</time>
      </trkpt>
      <trkpt lat="45.74831" lon="5.82405">
        <ele>814</ele>
        <time>2023-04-09T21:39:08Z</time>
      </trkpt>
      <trkpt lat="45.74842" lon="5.82368">
        <ele>815</ele>
        <time>2023-04-09T21:39:45Z</time>
      </trkpt>
      <trkpt lat="45.74848" lon="5.82357">
        <ele>814</ele>
        <time>2023-04-09T21:39:58Z</time>
      </trkpt>
      <trkpt lat="45.74849" lon="5.82341">
        <ele>815</ele>
        <time>2023-04-09T21:40:13Z</time>
      </trkpt>
      <trkpt lat="45.74834" lon="5.82329">
        <ele>818</ele>
        <time>2023-04-09T21:40:36Z</time>
      </trkpt>
      <trkpt lat="45.74822" lon="5.82308">
        <ele>819</ele>
        <time>2023-04-09T21:41:01Z</time>
      </trkpt>
      <trkpt lat="45.74818" lon="5.82295">
        <ele>819</ele>
        <time>2023-04-09T21:41:14Z</time>
      </trkpt>
      <trkpt lat="45.74824" lon="5.82254">
        <ele>821</ele>
        <time>2023-04-09T21:41:53Z</time>
      </trkpt>
      <trkpt lat="45.74817" lon="5.8223">
        <ele>823</ele>
        <time>2023-04-09T21:42:18Z</time>
      </trkpt>
      <trkpt lat="45.74809" lon="5.82223">
        <ele>823</ele>
        <time>2023-04-09T21:42:30Z</time>
      </trkpt>
      <trkpt lat="45.748" lon="5.8222">
        <ele>822</ele>
        <time>2023-04-09T21:42:43Z</time>
      </trkpt>
      <trkpt lat="45.74792" lon="5.82212">
        <ele>822</ele>
        <time>2023-04-09T21:42:56Z</time>
      </trkpt>
      <trkpt lat="45.74774" lon="5.82213">
        <ele>820</ele>
        <time>2023-04-09T21:43:20Z</time>
      </trkpt>
      <trkpt lat="45.74765" lon="5.82217">
        <ele>819</ele>
        <time>2023-04-09T21:43:32Z</time>
      </trkpt>
      <trkpt lat="45.74758" lon="5.82208">
        <ele>819</ele>
        <time>2023-04-09T21:43:45Z</time>
      </trkpt>
      <trkpt lat="45.7476" lon="5.82197">
        <ele>820</ele>
        <time>2023-04-09T21:43:55Z</time>
      </trkpt>
      <trkpt lat="45.74752" lon="5.82089">
        <ele>831</ele>
        <time>2023-04-09T21:45:36Z</time>
      </trkpt>
      <trkpt lat="45.74738" lon="5.82066">
        <ele>828</ele>
        <time>2023-04-09T21:46:05Z</time>
      </trkpt>
      <trkpt lat="45.74705" lon="5.81999">
        <ele>825</ele>
        <time>2023-04-09T21:47:21Z</time>
      </trkpt>
      <trkpt lat="45.74698" lon="5.81973">
        <ele>824</ele>
        <time>2023-04-09T21:47:47Z</time>
      </trkpt>
      <trkpt lat="45.74692" lon="5.81963">
        <ele>823</ele>
        <time>2023-04-09T21:47:59Z</time>
      </trkpt>
      <trkpt lat="45.74687" lon="5.81908">
        <ele>826</ele>
        <time>2023-04-09T21:48:51Z</time>
      </trkpt>
      <trkpt lat="45.74683" lon="5.81896">
        <ele>826</ele>
        <time>2023-04-09T21:49:03Z</time>
      </trkpt>
      <trkpt lat="45.74676" lon="5.81887">
        <ele>825</ele>
        <time>2023-04-09T21:49:16Z</time>
      </trkpt>
      <trkpt lat="45.74659" lon="5.81851">
        <ele>828</ele>
        <time>2023-04-09T21:49:57Z</time>
      </trkpt>
      <trkpt lat="45.74648" lon="5.81848">
        <ele>828</ele>
        <time>2023-04-09T21:50:11Z</time>
      </trkpt>
      <trkpt lat="45.74629" lon="5.81856">
        <ele>827</ele>
        <time>2023-04-09T21:50:38Z</time>
      </trkpt>
      <trkpt lat="45.74621" lon="5.81864">
        <ele>825</ele>
        <time>2023-04-09T21:50:51Z</time>
      </trkpt>
      <trkpt lat="45.74592" lon="5.81873">
        <ele>823</ele>
        <time>2023-04-09T21:51:31Z</time>
      </trkpt>
      <trkpt lat="45.74583" lon="5.81871">
        <ele>823</ele>
        <time>2023-04-09T21:51:43Z</time>
      </trkpt>
      <trkpt lat="45.74573" lon="5.81873">
        <ele>822</ele>
        <time>2023-04-09T21:51:56Z</time>
      </trkpt>
      <trkpt lat="45.74564" lon="5.81878">
        <ele>820</ele>
        <time>2023-04-09T21:52:09Z</time>
      </trkpt>
      <trkpt lat="45.74555" lon="5.81876">
        <ele>820</ele>
        <time>2023-04-09T21:52:21Z</time>
      </trkpt>
      <trkpt lat="45.74526" lon="5.81884">
        <ele>816</ele>
        <time>2023-04-09T21:53:01Z</time>
      </trkpt>
      <trkpt lat="45.74507" lon="5.8188">
        <ele>816</ele>
        <time>2023-04-09T21:53:26Z</time>
      </trkpt>
      <trkpt lat="45.74462" lon="5.81826">
        <ele>818</ele>
        <time>2023-04-09T21:54:45Z</time>
      </trkpt>
      <trkpt lat="45.74436" lon="5.81809">
        <ele>815</ele>
        <time>2023-04-09T21:55:23Z</time>
      </trkpt>
      <trkpt lat="45.74427" lon="5.81806">
        <ele>813</ele>
        <time>2023-04-09T21:55:35Z</time>
      </trkpt>
      <trkpt lat="45.74417" lon="5.81783">
        <ele>814</ele>
        <time>2023-04-09T21:56:00Z</time>
      </trkpt>
      <trkpt lat="45.74416" lon="5.8177">
        <ele>816</ele>
        <time>2023-04-09T21:56:12Z</time>
      </trkpt>
      <trkpt lat="45.74404" lon="5.81748">
        <ele>818</ele>
        <time>2023-04-09T21:56:38Z</time>
      </trkpt>
      <trkpt lat="45.74397" lon="5.81722">
        <ele>822</ele>
        <time>2023-04-09T21:57:04Z</time>
      </trkpt>
      <trkpt lat="45.74384" lon="5.81702">
        <ele>823</ele>
        <time>2023-04-09T21:57:30Z</time>
      </trkpt>
      <trkpt lat="45.74355" lon="5.81705">
        <ele>817</ele>
        <time>2023-04-09T21:58:09Z</time>
      </trkpt>
      <trkpt lat="45.74338" lon="5.81717">
        <ele>812</ele>
        <time>2023-04-09T21:58:34Z</time>
      </trkpt>
      <trkpt lat="45.74328" lon="5.81712">
        <ele>811</ele>
        <time>2023-04-09T21:58:48Z</time>
      </trkpt>
      <trkpt lat="45.74322" lon="5.81703">
        <ele>812</ele>
        <time>2023-04-09T21:59:00Z</time>
      </trkpt>
      <trkpt lat="45.74312" lon="5.817">
        <ele>812</ele>
        <time>2023-04-09T21:59:13Z</time>
      </trkpt>
      <trkpt lat="45.74305" lon="5.81693">
        <ele>811</ele>
        <time>2023-04-09T21:59:25Z</time>
      </trkpt>
      <trkpt lat="45.74295" lon="5.81691">
        <ele>811</ele>
        <time>2023-04-09T21:59:38Z</time>
      </trkpt>
      <trkpt lat="45.74278" lon="5.81702">
        <ele>809</ele>
        <time>2023-04-09T22:00:03Z</time>
      </trkpt>
      <trkpt lat="45.74264" lon="5.81722">
        <ele>808</ele>
        <time>2023-04-09T22:00:29Z</time>
      </trkpt>
      <trkpt lat="45.74252" lon="5.81758">
        <ele>809</ele>
        <time>2023-04-09T22:01:07Z</time>
      </trkpt>
      <trkpt lat="45.74246" lon="5.81768">
        <ele>809</ele>
        <time>2023-04-09T22:01:19Z</time>
      </trkpt>
      <trkpt lat="45.74227" lon="5.81816">
        <ele>811</ele>
        <time>2023-04-09T22:02:10Z</time>
      </trkpt>
      <trkpt lat="45.74219" lon="5.81823">
        <ele>812</ele>
        <time>2023-04-09T22:02:23Z</time>
      </trkpt>
      <trkpt lat="45.74209" lon="5.81826">
        <ele>814</ele>
        <time>2023-04-09T22:02:36Z</time>
      </trkpt>
      <trkpt lat="45.74199" lon="5.81825">
        <ele>816</ele>
        <time>2023-04-09T22:02:50Z</time>
      </trkpt>
      <trkpt lat="45.74183" lon="5.81839">
        <ele>818</ele>
        <time>2023-04-09T22:03:15Z</time>
      </trkpt>
      <trkpt lat="45.74178" lon="5.81838">
        <ele>819</ele>
        <time>2023-04-09T22:03:22Z</time>
      </trkpt>
      <trkpt lat="45.74169" lon="5.81831">
        <ele>821</ele>
        <time>2023-04-09T22:03:35Z</time>
      </trkpt>
      <trkpt lat="45.74154" lon="5.81847">
        <ele>828</ele>
        <time>2023-04-09T22:04:00Z</time>
      </trkpt>
      <trkpt lat="45.74135" lon="5.81862">
        <ele>838</ele>
        <time>2023-04-09T22:04:29Z</time>
      </trkpt>
      <trkpt lat="45.74122" lon="5.81888">
        <ele>844</ele>
        <time>2023-04-09T22:04:59Z</time>
      </trkpt>
      <trkpt lat="45.74095" lon="5.81923">
        <ele>857</ele>
        <time>2023-04-09T22:05:47Z</time>
      </trkpt>
      <trkpt lat="45.74097" lon="5.81926">
        <ele>856</ele>
        <time>2023-04-09T22:05:51Z</time>
      </trkpt>
      <trkpt lat="45.74092" lon="5.81938">
        <ele>858</ele>
        <time>2023-04-09T22:06:04Z</time>
      </trkpt>
      <trkpt lat="45.74093" lon="5.8195">
        <ele>856</ele>
        <time>2023-04-09T22:06:16Z</time>
      </trkpt>
      <trkpt lat="45.74084" lon="5.81976">
        <ele>858</ele>
        <time>2023-04-09T22:06:43Z</time>
      </trkpt>
      <trkpt lat="45.7407" lon="5.81995">
        <ele>870</ele>
        <time>2023-04-09T22:07:08Z</time>
      </trkpt>
      <trkpt lat="45.74071" lon="5.82005">
        <ele>869</ele>
        <time>2023-04-09T22:07:18Z</time>
      </trkpt>
      <trkpt lat="45.74064" lon="5.82014">
        <ele>876</ele>
        <time>2023-04-09T22:07:30Z</time>
      </trkpt>
      <trkpt lat="45.74067" lon="5.82022">
        <ele>874</ele>
        <time>2023-04-09T22:07:39Z</time>
      </trkpt>
      <trkpt lat="45.74067" lon="5.82077">
        <ele>876</ele>
        <time>2023-04-09T22:08:30Z</time>
      </trkpt>
      <trkpt lat="45.74069" lon="5.8209">
        <ele>875</ele>
        <time>2023-04-09T22:08:42Z</time>
      </trkpt>
      <trkpt lat="45.74064" lon="5.82116">
        <ele>880</ele>
        <time>2023-04-09T22:09:08Z</time>
      </trkpt>
      <trkpt lat="45.7407" lon="5.82126">
        <ele>877</ele>
        <time>2023-04-09T22:09:20Z</time>
      </trkpt>
      <trkpt lat="45.74071" lon="5.82155">
        <ele>878</ele>
        <time>2023-04-09T22:09:47Z</time>
      </trkpt>
      <trkpt lat="45.74079" lon="5.82179">
        <ele>875</ele>
        <time>2023-04-09T22:10:12Z</time>
      </trkpt>
      <trkpt lat="45.74093" lon="5.82198">
        <ele>867</ele>
        <time>2023-04-09T22:10:37Z</time>
      </trkpt>
      <trkpt lat="45.74092" lon="5.82212">
        <ele>868</ele>
        <time>2023-04-09T22:10:50Z</time>
      </trkpt>
      <trkpt lat="45.74098" lon="5.822">
        <ele>865</ele>
        <time>2023-04-09T22:11:04Z</time>
      </trkpt>
      <trkpt lat="45.74093" lon="5.82188">
        <ele>867</ele>
        <time>2023-04-09T22:11:17Z</time>
      </trkpt>
      <trkpt lat="45.74088" lon="5.822">
        <ele>870</ele>
        <time>2023-04-09T22:11:30Z</time>
      </trkpt>
      <trkpt lat="45.74091" lon="5.82213">
        <ele>869</ele>
        <time>2023-04-09T22:11:43Z</time>
      </trkpt>
      <trkpt lat="45.74089" lon="5.82239">
        <ele>870</ele>
        <time>2023-04-09T22:12:07Z</time>
      </trkpt>
      <trkpt lat="45.74082" lon="5.8223">
        <ele>873</ele>
        <time>2023-04-09T22:12:20Z</time>
      </trkpt>
      <trkpt lat="45.74071" lon="5.82226">
        <ele>879</ele>
        <time>2023-04-09T22:12:35Z</time>
      </trkpt>
      <trkpt lat="45.7407" lon="5.82232">
        <ele>880</ele>
        <time>2023-04-09T22:12:41Z</time>
      </trkpt>
      <trkpt lat="45.7405" lon="5.82251">
        <ele>890</ele>
        <time>2023-04-09T22:13:13Z</time>
      </trkpt>
      <trkpt lat="45.74033" lon="5.82275">
        <ele>898</ele>
        <time>2023-04-09T22:13:45Z</time>
      </trkpt>
      <trkpt lat="45.74022" lon="5.82296">
        <ele>903</ele>
        <time>2023-04-09T22:14:09Z</time>
      </trkpt>
      <trkpt lat="45.7402" lon="5.82304">
        <ele>904</ele>
        <time>2023-04-09T22:14:17Z</time>
      </trkpt>
      <trkpt lat="45.74037" lon="5.82295">
        <ele>897</ele>
        <time>2023-04-09T22:14:41Z</time>
      </trkpt>
      <trkpt lat="45.74033" lon="5.82299">
        <ele>898</ele>
        <time>2023-04-09T22:14:48Z</time>
      </trkpt>
      <trkpt lat="45.7404" lon="5.82302">
        <ele>895</ele>
        <time>2023-04-09T22:14:57Z</time>
      </trkpt>
      <trkpt lat="45.74046" lon="5.82311">
        <ele>893</ele>
        <time>2023-04-09T22:15:09Z</time>
      </trkpt>
      <trkpt lat="45.74039" lon="5.82314">
        <ele>896</ele>
        <time>2023-04-09T22:15:19Z</time>
      </trkpt>
      <trkpt lat="45.74033" lon="5.82311">
        <ele>898</ele>
        <time>2023-04-09T22:15:27Z</time>
      </trkpt>
      <trkpt lat="45.74032" lon="5.82307">
        <ele>899</ele>
        <time>2023-04-09T22:15:31Z</time>
      </trkpt>
      <trkpt lat="45.74031" lon="5.82319">
        <ele>899</ele>
        <time>2023-04-09T22:15:42Z</time>
      </trkpt>
      <trkpt lat="45.74019" lon="5.82341">
        <ele>903</ele>
        <time>2023-04-09T22:16:09Z</time>
      </trkpt>
      <trkpt lat="45.74004" lon="5.82378">
        <ele>907</ele>
        <time>2023-04-09T22:16:48Z</time>
      </trkpt>
      <trkpt lat="45.74" lon="5.82393">
        <ele>907</ele>
        <time>2023-04-09T22:17:03Z</time>
      </trkpt>
      <trkpt lat="45.74" lon="5.82419">
        <ele>906</ele>
        <time>2023-04-09T22:17:28Z</time>
      </trkpt>
      <trkpt lat="45.73993" lon="5.82473">
        <ele>898</ele>
        <time>2023-04-09T22:18:19Z</time>
      </trkpt>
      <trkpt lat="45.73988" lon="5.82484">
        <ele>897</ele>
        <time>2023-04-09T22:18:31Z</time>
      </trkpt>
      <trkpt lat="45.73985" lon="5.82511">
        <ele>893</ele>
        <time>2023-04-09T22:18:56Z</time>
      </trkpt>
      <trkpt lat="45.73979" lon="5.82521">
        <ele>893</ele>
        <time>2023-04-09T22:19:09Z</time>
      </trkpt>
      <trkpt lat="45.73974" lon="5.82543">
        <ele>890</ele>
        <time>2023-04-09T22:19:30Z</time>
      </trkpt>
      <trkpt lat="45.73967" lon="5.82553">
        <ele>890</ele>
        <time>2023-04-09T22:19:43Z</time>
      </trkpt>
      <trkpt lat="45.73964" lon="5.8258">
        <ele>885</ele>
        <time>2023-04-09T22:20:09Z</time>
      </trkpt>
      <trkpt lat="45.7396" lon="5.82593">
        <ele>883</ele>
        <time>2023-04-09T22:20:22Z</time>
      </trkpt>
      <trkpt lat="45.73943" lon="5.82606">
        <ele>884</ele>
        <time>2023-04-09T22:20:48Z</time>
      </trkpt>
      <trkpt lat="45.73905" lon="5.8262">
        <ele>888</ele>
        <time>2023-04-09T22:21:40Z</time>
      </trkpt>
      <trkpt lat="45.73899" lon="5.8263">
        <ele>887</ele>
        <time>2023-04-09T22:21:52Z</time>
      </trkpt>
      <trkpt lat="45.73884" lon="5.82631">
        <ele>890</ele>
        <time>2023-04-09T22:22:12Z</time>
      </trkpt>
      <trkpt lat="45.73875" lon="5.82635">
        <ele>891</ele>
        <time>2023-04-09T22:22:25Z</time>
      </trkpt>
      <trkpt lat="45.73866" lon="5.8265">
        <ele>890</ele>
        <time>2023-04-09T22:22:43Z</time>
      </trkpt>
      <trkpt lat="45.73847" lon="5.82646">
        <ele>895</ele>
        <time>2023-04-09T22:23:09Z</time>
      </trkpt>
      <trkpt lat="45.73839" lon="5.8264">
        <ele>898</ele>
        <time>2023-04-09T22:23:21Z</time>
      </trkpt>
      <trkpt lat="45.73829" lon="5.82642">
        <ele>899</ele>
        <time>2023-04-09T22:23:35Z</time>
      </trkpt>
      <trkpt lat="45.73821" lon="5.82649">
        <ele>900</ele>
        <time>2023-04-09T22:23:47Z</time>
      </trkpt>
      <trkpt lat="45.73804" lon="5.82656">
        <ele>902</ele>
        <time>2023-04-09T22:24:11Z</time>
      </trkpt>
      <trkpt lat="45.73797" lon="5.82665">
        <ele>901</ele>
        <time>2023-04-09T22:24:23Z</time>
      </trkpt>
      <trkpt lat="45.73787" lon="5.82671">
        <ele>902</ele>
        <time>2023-04-09T22:24:38Z</time>
      </trkpt>
      <trkpt lat="45.73775" lon="5.82674">
        <ele>904</ele>
        <time>2023-04-09T22:24:54Z</time>
      </trkpt>
      <trkpt lat="45.73775" lon="5.82676">
        <ele>904</ele>
        <time>2023-04-09T22:24:56Z</time>
      </trkpt>
      <trkpt lat="45.73771" lon="5.82672">
        <ele>905</ele>
        <time>2023-04-09T22:25:02Z</time>
      </trkpt>
      <trkpt lat="45.73777" lon="5.8266">
        <ele>906</ele>
        <time>2023-04-09T22:25:16Z</time>
      </trkpt>
      <trkpt lat="45.7378" lon="5.82646">
        <ele>908</ele>
        <time>2023-04-09T22:25:30Z</time>
      </trkpt>
      <trkpt lat="45.7378" lon="5.82619">
        <ele>914</ele>
        <time>2023-04-09T22:25:55Z</time>
      </trkpt>
      <trkpt lat="45.73785" lon="5.82593">
        <ele>918</ele>
        <time>2023-04-09T22:26:20Z</time>
      </trkpt>
      <trkpt lat="45.73779" lon="5.82583">
        <ele>921</ele>
        <time>2023-04-09T22:26:32Z</time>
      </trkpt>
      <trkpt lat="45.73757" lon="5.8258">
        <ele>926</ele>
        <time>2023-04-09T22:27:02Z</time>
      </trkpt>
      <trkpt lat="45.7373" lon="5.82593">
        <ele>936</ele>
        <time>2023-04-09T22:27:40Z</time>
      </trkpt>
      <trkpt lat="45.73732" lon="5.82591">
        <ele>935</ele>
        <time>2023-04-09T22:27:43Z</time>
      </trkpt>
      <trkpt lat="45.73713" lon="5.82597">
        <ele>944</ele>
        <time>2023-04-09T22:28:09Z</time>
      </trkpt>
      <trkpt lat="45.7371" lon="5.82608">
        <ele>942</ele>
        <time>2023-04-09T22:28:20Z</time>
      </trkpt>
      <trkpt lat="45.73701" lon="5.8261">
        <ele>946</ele>
        <time>2023-04-09T22:28:32Z</time>
      </trkpt>
      <trkpt lat="45.73695" lon="5.8262">
        <ele>947</ele>
        <time>2023-04-09T22:28:44Z</time>
      </trkpt>
      <trkpt lat="45.73697" lon="5.82637">
        <ele>941</ele>
        <time>2023-04-09T22:29:01Z</time>
      </trkpt>
      <trkpt lat="45.73704" lon="5.82629">
        <ele>940</ele>
        <time>2023-04-09T22:29:12Z</time>
      </trkpt>
      <trkpt lat="45.73713" lon="5.82631">
        <ele>935</ele>
        <time>2023-04-09T22:29:25Z</time>
      </trkpt>
      <trkpt lat="45.7371" lon="5.82636">
        <ele>935</ele>
        <time>2023-04-09T22:29:31Z</time>
      </trkpt>
      <trkpt lat="45.73709" lon="5.82634">
        <ele>936</ele>
        <time>2023-04-09T22:29:33Z</time>
      </trkpt>
      <trkpt lat="45.73672" lon="5.82641">
        <ele>952</ele>
        <time>2023-04-09T22:30:23Z</time>
      </trkpt>
      <trkpt lat="45.73657" lon="5.82655">
        <ele>954</ele>
        <time>2023-04-09T22:30:47Z</time>
      </trkpt>
      <trkpt lat="45.7364" lon="5.82664">
        <ele>961</ele>
        <time>2023-04-09T22:31:11Z</time>
      </trkpt>
      <trkpt lat="45.73645" lon="5.82658">
        <ele>960</ele>
        <time>2023-04-09T22:31:20Z</time>
      </trkpt>
      <trkpt lat="45.73627" lon="5.82654">
        <ele>970</ele>
        <time>2023-04-09T22:31:44Z</time>
      </trkpt>
      <trkpt lat="45.73617" lon="5.82661">
        <ele>973</ele>
        <time>2023-04-09T22:31:59Z</time>
      </trkpt>
      <trkpt lat="45.73611" lon="5.8267">
        <ele>974</ele>
        <time>2023-04-09T22:32:10Z</time>
      </trkpt>
      <trkpt lat="45.73602" lon="5.82674">
        <ele>978</ele>
        <time>2023-04-09T22:32:23Z</time>
      </trkpt>
      <trkpt lat="45.736" lon="5.82689">
        <ele>976</ele>
        <time>2023-04-09T22:32:37Z</time>
      </trkpt>
      <trkpt lat="45.73602" lon="5.82702">
        <ele>972</ele>
        <time>2023-04-09T22:32:50Z</time>
      </trkpt>
      <trkpt lat="45.73592" lon="5.82687">
        <ele>981</ele>
        <time>2023-04-09T22:33:09Z</time>
      </trkpt>
      <trkpt lat="45.73586" lon="5.82707">
        <ele>980</ele>
        <time>2023-04-09T22:33:29Z</time>
      </trkpt>
      <trkpt lat="45.73578" lon="5.82699">
        <ele>985</ele>
        <time>2023-04-09T22:33:42Z</time>
      </trkpt>
      <trkpt lat="45.73551" lon="5.82687">
        <ele>997</ele>
        <time>2023-04-09T22:34:20Z</time>
      </trkpt>
      <trkpt lat="45.73545" lon="5.82676">
        <ele>1001</ele>
        <time>2023-04-09T22:34:33Z</time>
      </trkpt>
      <trkpt lat="45.73545" lon="5.82671">
        <ele>1002</ele>
        <time>2023-04-09T22:34:38Z</time>
      </trkpt>
      <trkpt lat="45.73537" lon="5.82665">
        <ele>1006</ele>
        <time>2023-04-09T22:34:50Z</time>
      </trkpt>
      <trkpt lat="45.73528" lon="5.82662">
        <ele>1010</ele>
        <time>2023-04-09T22:35:02Z</time>
      </trkpt>
      <trkpt lat="45.73526" lon="5.82665">
        <ele>1010</ele>
        <time>2023-04-09T22:35:06Z</time>
      </trkpt>
      <trkpt lat="45.73517" lon="5.82666">
        <ele>1013</ele>
        <time>2023-04-09T22:35:18Z</time>
      </trkpt>
      <trkpt lat="45.73501" lon="5.82674">
        <ele>1017</ele>
        <time>2023-04-09T22:35:41Z</time>
      </trkpt>
      <trkpt lat="45.73488" lon="5.82667">
        <ele>1022</ele>
        <time>2023-04-09T22:35:59Z</time>
      </trkpt>
      <trkpt lat="45.73478" lon="5.82667">
        <ele>1025</ele>
        <time>2023-04-09T22:36:12Z</time>
      </trkpt>
      <trkpt lat="45.73485" lon="5.82678">
        <ele>1021</ele>
        <time>2023-04-09T22:36:26Z</time>
      </trkpt>
      <trkpt lat="45.73493" lon="5.82676">
        <ele>1019</ele>
        <time>2023-04-09T22:36:37Z</time>
      </trkpt>
      <trkpt lat="45.73498" lon="5.82682">
        <ele>1017</ele>
        <time>2023-04-09T22:36:46Z</time>
      </trkpt>
      <trkpt lat="45.73502" lon="5.82689">
        <ele>1014</ele>
        <time>2023-04-09T22:36:54Z</time>
      </trkpt>
      <trkpt lat="45.73499" lon="5.82691">
        <ele>1015</ele>
        <time>2023-04-09T22:36:59Z</time>
      </trkpt>
      <trkpt lat="45.73499" lon="5.82695">
        <ele>1014</ele>
        <time>2023-04-09T22:37:02Z</time>
      </trkpt>
      <trkpt lat="45.73492" lon="5.82684">
        <ele>1018</ele>
        <time>2023-04-09T22:37:16Z</time>
      </trkpt>
      <trkpt lat="45.73493" lon="5.82682">
        <ele>1018</ele>
        <time>2023-04-09T22:37:19Z</time>
      </trkpt>
      <trkpt lat="45.73475" lon="5.82669">
        <ele>1026</ele>
        <time>2023-04-09T22:37:45Z</time>
      </trkpt>
      <trkpt lat="45.73466" lon="5.82666">
        <ele>1028</ele>
        <time>2023-04-09T22:37:58Z</time>
      </trkpt>
      <trkpt lat="45.73468" lon="5.82665">
        <ele>1028</ele>
        <time>2023-04-09T22:38:01Z</time>
      </trkpt>
      <trkpt lat="45.73459" lon="5.82655">
        <ele>1032</ele>
        <time>2023-04-09T22:38:16Z</time>
      </trkpt>
      <trkpt lat="45.7345" lon="5.8266">
        <ele>1034</ele>
        <time>2023-04-09T22:38:29Z</time>
      </trkpt>
      <trkpt lat="45.73435" lon="5.82661">
        <ele>1038</ele>
        <time>2023-04-09T22:38:49Z</time>
      </trkpt>
      <trkpt lat="45.73432" lon="5.82672">
        <ele>1037</ele>
        <time>2023-04-09T22:39:00Z</time>
      </trkpt>
      <trkpt lat="45.73422" lon="5.82651">
        <ele>1043</ele>
        <time>2023-04-09T22:39:23Z</time>
      </trkpt>
      <trkpt lat="45.73419" lon="5.82624">
        <ele>1048</ele>
        <time>2023-04-09T22:39:49Z</time>
      </trkpt>
      <trkpt lat="45.73403" lon="5.82607">
        <ele>1056</ele>
        <time>2023-04-09T22:40:15Z</time>
      </trkpt>
      <trkpt lat="45.73397" lon="5.82596">
        <ele>1059</ele>
        <time>2023-04-09T22:40:28Z</time>
      </trkpt>
      <trkpt lat="45.73388" lon="5.82589">
        <ele>1063</ele>
        <time>2023-04-09T22:40:42Z</time>
      </trkpt>
      <trkpt lat="45.73336" lon="5.8259">
        <ele>1076</ele>
        <time>2023-04-09T22:41:51Z</time>
      </trkpt>
      <trkpt lat="45.73338" lon="5.82583">
        <ele>1077</ele>
        <time>2023-04-09T22:41:59Z</time>
      </trkpt>
      <trkpt lat="45.73337" lon="5.82589">
        <ele>1076</ele>
        <time>2023-04-09T22:42:04Z</time>
      </trkpt>
      <trkpt lat="45.73327" lon="5.82594">
        <ele>1078</ele>
        <time>2023-04-09T22:42:18Z</time>
      </trkpt>
      <trkpt lat="45.73317" lon="5.82592">
        <ele>1081</ele>
        <time>2023-04-09T22:42:32Z</time>
      </trkpt>
      <trkpt lat="45.73307" lon="5.82594">
        <ele>1083</ele>
        <time>2023-04-09T22:42:45Z</time>
      </trkpt>
      <trkpt lat="45.73298" lon="5.82587">
        <ele>1087</ele>
        <time>2023-04-09T22:42:59Z</time>
      </trkpt>
      <trkpt lat="45.7328" lon="5.82588">
        <ele>1091</ele>
        <time>2023-04-09T22:43:23Z</time>
      </trkpt>
      <trkpt lat="45.73268" lon="5.82596">
        <ele>1093</ele>
        <time>2023-04-09T22:43:41Z</time>
      </trkpt>
      <trkpt lat="45.73258" lon="5.82596">
        <ele>1096</ele>
        <time>2023-04-09T22:43:54Z</time>
      </trkpt>
      <trkpt lat="45.73255" lon="5.82608">
        <ele>1095</ele>
        <time>2023-04-09T22:44:06Z</time>
      </trkpt>
      <trkpt lat="45.73247" lon="5.82601">
        <ele>1098</ele>
        <time>2023-04-09T22:44:18Z</time>
      </trkpt>
      <trkpt lat="45.7323" lon="5.82593">
        <ele>1104</ele>
        <time>2023-04-09T22:44:42Z</time>
      </trkpt>
      <trkpt lat="45.73191" lon="5.82598">
        <ele>1114</ele>
        <time>2023-04-09T22:45:35Z</time>
      </trkpt>
      <trkpt lat="45.73183" lon="5.82607">
        <ele>1115</ele>
        <time>2023-04-09T22:45:48Z</time>
      </trkpt>
      <trkpt lat="45.73165" lon="5.82608">
        <ele>1119</ele>
        <time>2023-04-09T22:46:12Z</time>
      </trkpt>
      <trkpt lat="45.73157" lon="5.82617">
        <ele>1117</ele>
        <time>2023-04-09T22:46:26Z</time>
      </trkpt>
      <trkpt lat="45.73148" lon="5.82614">
        <ele>1117</ele>
        <time>2023-04-09T22:46:38Z</time>
      </trkpt>
      <trkpt lat="45.73138" lon="5.82591">
        <ele>1119</ele>
        <time>2023-04-09T22:47:03Z</time>
      </trkpt>
      <trkpt lat="45.73138" lon="5.82608">
        <ele>1117</ele>
        <time>2023-04-09T22:47:19Z</time>
      </trkpt>
      <trkpt lat="45.73136" lon="5.82601">
        <ele>1118</ele>
        <time>2023-04-09T22:47:26Z</time>
      </trkpt>
      <trkpt lat="45.73151" lon="5.82588">
        <ele>1120</ele>
        <time>2023-04-09T22:47:50Z</time>
      </trkpt>
      <trkpt lat="45.73158" lon="5.82576">
        <ele>1123</ele>
        <time>2023-04-09T22:48:04Z</time>
      </trkpt>
      <trkpt lat="45.73161" lon="5.82563">
        <ele>1125</ele>
        <time>2023-04-09T22:48:17Z</time>
      </trkpt>
      <trkpt lat="45.73154" lon="5.82496">
        <ele>1135</ele>
        <time>2023-04-09T22:49:20Z</time>
      </trkpt>
      <trkpt lat="45.73157" lon="5.82417">
        <ele>1143</ele>
        <time>2023-04-09T22:50:34Z</time>
      </trkpt>
      <trkpt lat="45.73144" lon="5.82405">
        <ele>1138</ele>
        <time>2023-04-09T22:50:54Z</time>
      </trkpt>
      <trkpt lat="45.73153" lon="5.82412">
        <ele>1142</ele>
        <time>2023-04-09T22:51:08Z</time>
      </trkpt>
      <trkpt lat="45.73154" lon="5.82404">
        <ele>1142</ele>
        <time>2023-04-09T22:51:16Z</time>
      </trkpt>
      <trkpt lat="45.73158" lon="5.82406">
        <ele>1144</ele>
        <time>2023-04-09T22:51:21Z</time>
      </trkpt>
      <trkpt lat="45.73171" lon="5.82402">
        <ele>1146</ele>
        <time>2023-04-09T22:51:39Z</time>
      </trkpt>
      <trkpt lat="45.73189" lon="5.82371">
        <ele>1143</ele>
        <time>2023-04-09T22:52:17Z</time>
      </trkpt>
      <trkpt lat="45.73186" lon="5.82375">
        <ele>1144</ele>
        <time>2023-04-09T22:52:22Z</time>
      </trkpt>
      <trkpt lat="45.73186" lon="5.82372">
        <ele>1144</ele>
        <time>2023-04-09T22:52:25Z</time>
      </trkpt>
      <trkpt lat="45.73186" lon="5.82378">
        <ele>1144</ele>
        <time>2023-04-09T22:52:30Z</time>
      </trkpt>
      <trkpt lat="45.73185" lon="5.82375">
        <ele>1144</ele>
        <time>2023-04-09T22:52:34Z</time>
      </trkpt>
      <trkpt lat="45.73183" lon="5.82378">
        <ele>1144</ele>
        <time>2023-04-09T22:52:37Z</time>
      </trkpt>
      <trkpt lat="45.73189" lon="5.8239">
        <ele>1143</ele>
        <time>2023-04-09T22:52:51Z</time>
      </trkpt>
      <trkpt lat="45.73188" lon="5.824">
        <ele>1143</ele>
        <time>2023-04-09T22:53:01Z</time>
      </trkpt>
      <trkpt lat="45.73184" lon="5.8238">
        <ele>1144</ele>
        <time>2023-04-09T22:53:20Z</time>
      </trkpt>
      <trkpt lat="45.7319" lon="5.82374">
        <ele>1143</ele>
        <time>2023-04-09T22:53:30Z</time>
      </trkpt>
      <trkpt lat="45.73188" lon="5.82369">
        <ele>1143</ele>
        <time>2023-04-09T22:53:35Z</time>
      </trkpt>
      <trkpt lat="45.73188" lon="5.82371">
        <ele>1143</ele>
        <time>2023-04-09T22:53:37Z</time>
      </trkpt>
      <trkpt lat="45.7319" lon="5.8237">
        <ele>1143</ele>
        <time>2023-04-09T22:53:40Z</time>
      </trkpt>
      <trkpt lat="45.73189" lon="5.82378">
        <ele>1143</ele>
        <time>2023-04-09T22:53:47Z</time>
      </trkpt>
      <trkpt lat="45.73188" lon="5.82372">
        <ele>1143</ele>
        <time>2023-04-09T22:53:53Z</time>
      </trkpt>
      <trkpt lat="45.73187" lon="5.82374">
        <ele>1144</ele>
        <time>2023-04-09T22:53:55Z</time>
      </trkpt>
      <trkpt lat="45.73189" lon="5.82377">
        <ele>1143</ele>
        <time>2023-04-09T22:53:59Z</time>
      </trkpt>
      <trkpt lat="45.73187" lon="5.82374">
        <ele>1144</ele>
        <time>2023-04-09T22:54:03Z</time>
      </trkpt>
      <trkpt lat="45.73188" lon="5.82371">
        <ele>1143</ele>
        <time>2023-04-09T22:54:06Z</time>
      </trkpt>
      <trkpt lat="45.73188" lon="5.82373">
        <ele>1143</ele>
        <time>2023-04-09T22:54:08Z</time>
      </trkpt>
      <trkpt lat="45.7319" lon="5.82372">
        <ele>1143</ele>
        <time>2023-04-09T22:54:11Z</time>
      </trkpt>
      <trkpt lat="45.73189" lon="5.82365">
        <ele>1143</ele>
        <time>2023-04-09T22:54:18Z</time>
      </trkpt>
      <trkpt lat="45.73187" lon="5.82369">
        <ele>1144</ele>
        <time>2023-04-09T22:54:22Z</time>
      </trkpt>
      <trkpt lat="45.73188" lon="5.82374">
        <ele>1143</ele>
        <time>2023-04-09T22:54:27Z</time>
      </trkpt>
      <trkpt lat="45.73182" lon="5.82382">
        <ele>1144</ele>
        <time>2023-04-09T22:54:38Z</time>
      </trkpt>
      <trkpt lat="45.73182" lon="5.8239">
        <ele>1144</ele>
        <time>2023-04-09T22:54:45Z</time>
      </trkpt>
      <trkpt lat="45.73183" lon="5.82377">
        <ele>1144</ele>
        <time>2023-04-09T22:54:58Z</time>
      </trkpt>
      <trkpt lat="45.73187" lon="5.82376">
        <ele>1144</ele>
        <time>2023-04-09T22:55:03Z</time>
      </trkpt>
      <trkpt lat="45.73187" lon="5.82371">
        <ele>1144</ele>
        <time>2023-04-09T22:55:08Z</time>
      </trkpt>
      <trkpt lat="45.73189" lon="5.82373">
        <ele>1143</ele>
        <time>2023-04-09T22:55:11Z</time>
      </trkpt>
      <trkpt lat="45.73186" lon="5.82369">
        <ele>1144</ele>
        <time>2023-04-09T22:55:16Z</time>
      </trkpt>
      <trkpt lat="45.73189" lon="5.82375">
        <ele>1143</ele>
        <time>2023-04-09T22:55:23Z</time>
      </trkpt>
      <trkpt lat="45.7319" lon="5.82373">
        <ele>1143</ele>
        <time>2023-04-09T22:55:25Z</time>
      </trkpt>
      <trkpt lat="45.73188" lon="5.82375">
        <ele>1143</ele>
        <time>2023-04-09T22:55:29Z</time>
      </trkpt>
      <trkpt lat="45.73191" lon="5.8237">
        <ele>1143</ele>
        <time>2023-04-09T22:55:35Z</time>
      </trkpt>
      <trkpt lat="45.73187" lon="5.82366">
        <ele>1144</ele>
        <time>2023-04-09T22:55:41Z</time>
      </trkpt>
      <trkpt lat="45.73191" lon="5.82368">
        <ele>1143</ele>
        <time>2023-04-09T22:55:47Z</time>
      </trkpt>
      <trkpt lat="45.73188" lon="5.8237">
        <ele>1143</ele>
        <time>2023-04-09T22:55:51Z</time>
      </trkpt>
      <trkpt lat="45.73192" lon="5.82368">
        <ele>1143</ele>
        <time>2023-04-09T22:55:57Z</time>
      </trkpt>
      <trkpt lat="45.7319" lon="5.82369">
        <ele>1143</ele>
        <time>2023-04-09T22:56:00Z</time>
      </trkpt>
      <trkpt lat="45.73192" lon="5.82365">
        <ele>1143</ele>
        <time>2023-04-09T22:56:05Z</time>
      </trkpt>
      <trkpt lat="45.73193" lon="5.82368">
        <ele>1143</ele>
        <time>2023-04-09T22:56:08Z</time>
      </trkpt>
      <trkpt lat="45.73188" lon="5.82371">
        <ele>1143</ele>
        <time>2023-04-09T22:56:15Z</time>
      </trkpt>
      <trkpt lat="45.73186" lon="5.82376">
        <ele>1144</ele>
        <time>2023-04-09T22:56:20Z</time>
      </trkpt>
      <trkpt lat="45.73188" lon="5.82372">
        <ele>1143</ele>
        <time>2023-04-09T22:56:25Z</time>
      </trkpt>
      <trkpt lat="45.73186" lon="5.8237">
        <ele>1144</ele>
        <time>2023-04-09T22:56:28Z</time>
      </trkpt>
      <trkpt lat="45.73187" lon="5.82373">
        <ele>1144</ele>
        <time>2023-04-09T22:56:31Z</time>
      </trkpt>
      <trkpt lat="45.73185" lon="5.82373">
        <ele>1144</ele>
        <time>2023-04-09T22:56:34Z</time>
      </trkpt>
      <trkpt lat="45.73191" lon="5.8237">
        <ele>1143</ele>
        <time>2023-04-09T22:56:42Z</time>
      </trkpt>
      <trkpt lat="45.73187" lon="5.82375">
        <ele>1144</ele>
        <time>2023-04-09T22:56:49Z</time>
      </trkpt>
      <trkpt lat="45.73189" lon="5.82374">
        <ele>1143</ele>
        <time>2023-04-09T22:56:52Z</time>
      </trkpt>
      <trkpt lat="45.73188" lon="5.82378">
        <ele>1143</ele>
        <time>2023-04-09T22:56:56Z</time>
      </trkpt>
      <trkpt lat="45.73185" lon="5.82376">
        <ele>1144</ele>
        <time>2023-04-09T22:57:01Z</time>
      </trkpt>
      <trkpt lat="45.73187" lon="5.82378">
        <ele>1144</ele>
        <time>2023-04-09T22:57:04Z</time>
      </trkpt>
      <trkpt lat="45.73187" lon="5.82373">
        <ele>1144</ele>
        <time>2023-04-09T22:57:09Z</time>
      </trkpt>
      <trkpt lat="45.73184" lon="5.82371">
        <ele>1144</ele>
        <time>2023-04-09T22:57:13Z</time>
      </trkpt>
      <trkpt lat="45.73189" lon="5.82373">
        <ele>1143</ele>
        <time>2023-04-09T22:57:20Z</time>
      </trkpt>
      <trkpt lat="45.73183" lon="5.82374">
        <ele>1144</ele>
        <time>2023-04-09T22:57:28Z</time>
      </trkpt>
      <trkpt lat="45.73183" lon="5.82372">
        <ele>1144</ele>
        <time>2023-04-09T22:57:30Z</time>
      </trkpt>
      <trkpt lat="45.73189" lon="5.82377">
        <ele>1143</ele>
        <time>2023-04-09T22:57:39Z</time>
      </trkpt>
      <trkpt lat="45.73188" lon="5.82374">
        <ele>1143</ele>
        <time>2023-04-09T22:57:42Z</time>
      </trkpt>
      <trkpt lat="45.73182" lon="5.82387">
        <ele>1144</ele>
        <time>2023-04-09T22:57:57Z</time>
      </trkpt>
      <trkpt lat="45.73175" lon="5.82395">
        <ele>1146</ele>
        <time>2023-04-09T22:58:09Z</time>
      </trkpt>
      <trkpt lat="45.73168" lon="5.824">
        <ele>1147</ele>
        <time>2023-04-09T22:58:19Z</time>
      </trkpt>
      <trkpt lat="45.73159" lon="5.82401">
        <ele>1144</ele>
        <time>2023-04-09T22:58:31Z</time>
      </trkpt>
      <trkpt lat="45.7315" lon="5.82406">
        <ele>1140</ele>
        <time>2023-04-09T22:58:44Z</time>
      </trkpt>
      <trkpt lat="45.73146" lon="5.82404">
        <ele>1139</ele>
        <time>2023-04-09T22:58:50Z</time>
      </trkpt>
      <trkpt lat="45.73139" lon="5.82411">
        <ele>1136</ele>
        <time>2023-04-09T22:59:01Z</time>
      </trkpt>
      <trkpt lat="45.73123" lon="5.82349">
        <ele>1125</ele>
        <time>2023-04-09T23:00:03Z</time>
      </trkpt>
      <trkpt lat="45.73112" lon="5.82336">
        <ele>1118</ele>
        <time>2023-04-09T23:00:22Z</time>
      </trkpt>
      <trkpt lat="45.73109" lon="5.82323">
        <ele>1113</ele>
        <time>2023-04-09T23:00:34Z</time>
      </trkpt>
      <trkpt lat="45.73109" lon="5.82317">
        <ele>1110</ele>
        <time>2023-04-09T23:00:40Z</time>
      </trkpt>
      <trkpt lat="45.73111" lon="5.82316">
        <ele>1111</ele>
        <time>2023-04-09T23:00:43Z</time>
      </trkpt>
      <trkpt lat="45.73108" lon="5.8231">
        <ele>1107</ele>
        <time>2023-04-09T23:00:50Z</time>
      </trkpt>
      <trkpt lat="45.73106" lon="5.82314">
        <ele>1107</ele>
        <time>2023-04-09T23:00:54Z</time>
      </trkpt>
      <trkpt lat="45.73103" lon="5.82302">
        <ele>1101</ele>
        <time>2023-04-09T23:01:06Z</time>
      </trkpt>
      <trkpt lat="45.73102" lon="5.82297">
        <ele>1098</ele>
        <time>2023-04-09T23:01:11Z</time>
      </trkpt>
      <trkpt lat="45.73103" lon="5.823">
        <ele>1100</ele>
        <time>2023-04-09T23:01:14Z</time>
      </trkpt>
      <trkpt lat="45.73109" lon="5.82298">
        <ele>1103</ele>
        <time>2023-04-09T23:01:22Z</time>
      </trkpt>
      <trkpt lat="45.73111" lon="5.82292">
        <ele>1102</ele>
        <time>2023-04-09T23:01:28Z</time>
      </trkpt>
      <trkpt lat="45.73109" lon="5.82292">
        <ele>1100</ele>
        <time>2023-04-09T23:01:31Z</time>
      </trkpt>
      <trkpt lat="45.73098" lon="5.82309">
        <ele>1101</ele>
        <time>2023-04-09T23:01:53Z</time>
      </trkpt>
      <trkpt lat="45.73095" lon="5.8231">
        <ele>1100</ele>
        <time>2023-04-09T23:01:57Z</time>
      </trkpt>
      <trkpt lat="45.73105" lon="5.82319">
        <ele>1109</ele>
        <time>2023-04-09T23:02:13Z</time>
      </trkpt>
      <trkpt lat="45.7312" lon="5.82351">
        <ele>1124</ele>
        <time>2023-04-09T23:02:49Z</time>
      </trkpt>
      <trkpt lat="45.73124" lon="5.82377">
        <ele>1128</ele>
        <time>2023-04-09T23:03:13Z</time>
      </trkpt>
      <trkpt lat="45.73141" lon="5.82413">
        <ele>1137</ele>
        <time>2023-04-09T23:03:54Z</time>
      </trkpt>
      <trkpt lat="45.73148" lon="5.82402">
        <ele>1140</ele>
        <time>2023-04-09T23:04:08Z</time>
      </trkpt>
      <trkpt lat="45.73153" lon="5.82377">
        <ele>1141</ele>
        <time>2023-04-09T23:04:32Z</time>
      </trkpt>
      <trkpt lat="45.7315" lon="5.82353">
        <ele>1139</ele>
        <time>2023-04-09T23:04:55Z</time>
      </trkpt>
      <trkpt lat="45.73154" lon="5.82326">
        <ele>1138</ele>
        <time>2023-04-09T23:05:20Z</time>
      </trkpt>
      <trkpt lat="45.73157" lon="5.82319">
        <ele>1137</ele>
        <time>2023-04-09T23:05:28Z</time>
      </trkpt>
      <trkpt lat="45.73153" lon="5.82298">
        <ele>1128</ele>
        <time>2023-04-09T23:05:48Z</time>
      </trkpt>
      <trkpt lat="45.73158" lon="5.82295">
        <ele>1130</ele>
        <time>2023-04-09T23:05:55Z</time>
      </trkpt>
      <trkpt lat="45.73154" lon="5.82281">
        <ele>1123</ele>
        <time>2023-04-09T23:06:10Z</time>
      </trkpt>
      <trkpt lat="45.73156" lon="5.82255">
        <ele>1115</ele>
        <time>2023-04-09T23:06:34Z</time>
      </trkpt>
      <trkpt lat="45.73153" lon="5.82242">
        <ele>1108</ele>
        <time>2023-04-09T23:06:47Z</time>
      </trkpt>
      <trkpt lat="45.73155" lon="5.82216">
        <ele>1097</ele>
        <time>2023-04-09T23:07:11Z</time>
      </trkpt>
      <trkpt lat="45.73162" lon="5.8219">
        <ele>1090</ele>
        <time>2023-04-09T23:07:37Z</time>
      </trkpt>
      <trkpt lat="45.73161" lon="5.82186">
        <ele>1087</ele>
        <time>2023-04-09T23:07:41Z</time>
      </trkpt>
      <trkpt lat="45.73178" lon="5.82173">
        <ele>1087</ele>
        <time>2023-04-09T23:08:07Z</time>
      </trkpt>
      <trkpt lat="45.73185" lon="5.82164">
        <ele>1083</ele>
        <time>2023-04-09T23:08:19Z</time>
      </trkpt>
      <trkpt lat="45.73195" lon="5.82165">
        <ele>1086</ele>
        <time>2023-04-09T23:08:33Z</time>
      </trkpt>
      <trkpt lat="45.73204" lon="5.82161">
        <ele>1085</ele>
        <time>2023-04-09T23:08:45Z</time>
      </trkpt>
      <trkpt lat="45.73219" lon="5.82126">
        <ele>1072</ele>
        <time>2023-04-09T23:09:23Z</time>
      </trkpt>
      <trkpt lat="45.73217" lon="5.82112">
        <ele>1065</ele>
        <time>2023-04-09T23:09:37Z</time>
      </trkpt>
      <trkpt lat="45.73246" lon="5.82079">
        <ele>1060</ele>
        <time>2023-04-09T23:10:26Z</time>
      </trkpt>
      <trkpt lat="45.73259" lon="5.82045">
        <ele>1046</ele>
        <time>2023-04-09T23:11:02Z</time>
      </trkpt>
      <trkpt lat="45.73271" lon="5.82025">
        <ele>1038</ele>
        <time>2023-04-09T23:11:27Z</time>
      </trkpt>
      <trkpt lat="45.73276" lon="5.82012">
        <ele>1033</ele>
        <time>2023-04-09T23:11:41Z</time>
      </trkpt>
      <trkpt lat="45.73286" lon="5.81958">
        <ele>1008</ele>
        <time>2023-04-09T23:12:33Z</time>
      </trkpt>
      <trkpt lat="45.73279" lon="5.81957">
        <ele>1005</ele>
        <time>2023-04-09T23:12:42Z</time>
      </trkpt>
      <trkpt lat="45.73274" lon="5.81962">
        <ele>1007</ele>
        <time>2023-04-09T23:12:50Z</time>
      </trkpt>
      <trkpt lat="45.73268" lon="5.81957">
        <ele>1003</ele>
        <time>2023-04-09T23:12:59Z</time>
      </trkpt>
      <trkpt lat="45.73273" lon="5.81967">
        <ele>1009</ele>
        <time>2023-04-09T23:13:11Z</time>
      </trkpt>
      <trkpt lat="45.73264" lon="5.81958">
        <ele>1003</ele>
        <time>2023-04-09T23:13:26Z</time>
      </trkpt>
      <trkpt lat="45.73266" lon="5.8193">
        <ele>988</ele>
        <time>2023-04-09T23:13:52Z</time>
      </trkpt>
      <trkpt lat="45.73239" lon="5.81915">
        <ele>972</ele>
        <time>2023-04-09T23:14:30Z</time>
      </trkpt>
      <trkpt lat="45.73232" lon="5.81908">
        <ele>966</ele>
        <time>2023-04-09T23:14:42Z</time>
      </trkpt>
      <trkpt lat="45.73235" lon="5.81928">
        <ele>978</ele>
        <time>2023-04-09T23:15:01Z</time>
      </trkpt>
      <trkpt lat="45.73232" lon="5.81928">
        <ele>977</ele>
        <time>2023-04-09T23:15:05Z</time>
      </trkpt>
      <trkpt lat="45.73231" lon="5.81924">
        <ele>975</ele>
        <time>2023-04-09T23:15:09Z</time>
      </trkpt>
      <trkpt lat="45.73235" lon="5.81928">
        <ele>978</ele>
        <time>2023-04-09T23:15:15Z</time>
      </trkpt>
      <trkpt lat="45.73235" lon="5.81933">
        <ele>981</ele>
        <time>2023-04-09T23:15:20Z</time>
      </trkpt>
      <trkpt lat="45.73231" lon="5.81927">
        <ele>976</ele>
        <time>2023-04-09T23:15:28Z</time>
      </trkpt>
      <trkpt lat="45.73238" lon="5.81938">
        <ele>984</ele>
        <time>2023-04-09T23:15:42Z</time>
      </trkpt>
      <trkpt lat="45.73236" lon="5.81945">
        <ele>988</ele>
        <time>2023-04-09T23:15:49Z</time>
      </trkpt>
      <trkpt lat="45.7323" lon="5.81935">
        <ele>980</ele>
        <time>2023-04-09T23:16:01Z</time>
      </trkpt>
      <trkpt lat="45.73231" lon="5.81939">
        <ele>983</ele>
        <time>2023-04-09T23:16:05Z</time>
      </trkpt>
      <trkpt lat="45.73235" lon="5.81933">
        <ele>981</ele>
        <time>2023-04-09T23:16:13Z</time>
      </trkpt>
      <trkpt lat="45.73234" lon="5.81927">
        <ele>977</ele>
        <time>2023-04-09T23:16:18Z</time>
      </trkpt>
      <trkpt lat="45.73225" lon="5.81925">
        <ele>973</ele>
        <time>2023-04-09T23:16:31Z</time>
      </trkpt>
      <trkpt lat="45.73228" lon="5.81912">
        <ele>967</ele>
        <time>2023-04-09T23:16:43Z</time>
      </trkpt>
      <trkpt lat="45.73226" lon="5.8192">
        <ele>971</ele>
        <time>2023-04-09T23:16:51Z</time>
      </trkpt>
      <trkpt lat="45.73219" lon="5.8193">
        <ele>974</ele>
        <time>2023-04-09T23:17:04Z</time>
      </trkpt>
      <trkpt lat="45.73223" lon="5.81929">
        <ele>975</ele>
        <time>2023-04-09T23:17:10Z</time>
      </trkpt>
      <trkpt lat="45.73215" lon="5.81935">
        <ele>975</ele>
        <time>2023-04-09T23:17:22Z</time>
      </trkpt>
      <trkpt lat="45.73206" lon="5.81929">
        <ele>969</ele>
        <time>2023-04-09T23:17:35Z</time>
      </trkpt>
      <trkpt lat="45.73188" lon="5.81926">
        <ele>961</ele>
        <time>2023-04-09T23:17:59Z</time>
      </trkpt>
      <trkpt lat="45.73169" lon="5.81933">
        <ele>959</ele>
        <time>2023-04-09T23:18:25Z</time>
      </trkpt>
      <trkpt lat="45.73135" lon="5.81921">
        <ele>937</ele>
        <time>2023-04-09T23:19:12Z</time>
      </trkpt>
      <trkpt lat="45.73144" lon="5.81891">
        <ele>929</ele>
        <time>2023-04-09T23:19:43Z</time>
      </trkpt>
      <trkpt lat="45.73149" lon="5.81836">
        <ele>909</ele>
        <time>2023-04-09T23:20:34Z</time>
      </trkpt>
      <trkpt lat="45.73138" lon="5.81799">
        <ele>895</ele>
        <time>2023-04-09T23:21:12Z</time>
      </trkpt>
      <trkpt lat="45.73124" lon="5.81782">
        <ele>887</ele>
        <time>2023-04-09T23:21:36Z</time>
      </trkpt>
      <trkpt lat="45.73114" lon="5.81785">
        <ele>885</ele>
        <time>2023-04-09T23:21:50Z</time>
      </trkpt>
      <trkpt lat="45.73104" lon="5.81782">
        <ele>882</ele>
        <time>2023-04-09T23:22:04Z</time>
      </trkpt>
      <trkpt lat="45.73102" lon="5.81779">
        <ele>880</ele>
        <time>2023-04-09T23:22:07Z</time>
      </trkpt>
      <trkpt lat="45.73104" lon="5.81781">
        <ele>881</ele>
        <time>2023-04-09T23:22:11Z</time>
      </trkpt>
      <trkpt lat="45.73104" lon="5.81795">
        <ele>885</ele>
        <time>2023-04-09T23:22:24Z</time>
      </trkpt>
      <trkpt lat="45.73099" lon="5.81787">
        <ele>881</ele>
        <time>2023-04-09T23:22:34Z</time>
      </trkpt>
      <trkpt lat="45.73094" lon="5.81791">
        <ele>881</ele>
        <time>2023-04-09T23:22:41Z</time>
      </trkpt>
      <trkpt lat="45.7309" lon="5.8179">
        <ele>880</ele>
        <time>2023-04-09T23:22:47Z</time>
      </trkpt>
      <trkpt lat="45.73091" lon="5.81785">
        <ele>879</ele>
        <time>2023-04-09T23:22:52Z</time>
      </trkpt>
      <trkpt lat="45.73091" lon="5.81787">
        <ele>879</ele>
        <time>2023-04-09T23:22:53Z</time>
      </trkpt>
      <trkpt lat="45.73101" lon="5.81776">
        <ele>880</ele>
        <time>2023-04-09T23:23:10Z</time>
      </trkpt>
      <trkpt lat="45.7311" lon="5.81773">
        <ele>881</ele>
        <time>2023-04-09T23:23:23Z</time>
      </trkpt>
      <trkpt lat="45.73127" lon="5.81759">
        <ele>881</ele>
        <time>2023-04-09T23:23:49Z</time>
      </trkpt>
      <trkpt lat="45.73139" lon="5.81737">
        <ele>878</ele>
        <time>2023-04-09T23:24:15Z</time>
      </trkpt>
      <trkpt lat="45.73148" lon="5.8173">
        <ele>878</ele>
        <time>2023-04-09T23:24:28Z</time>
      </trkpt>
      <trkpt lat="45.73157" lon="5.81728">
        <ele>880</ele>
        <time>2023-04-09T23:24:41Z</time>
      </trkpt>
      <trkpt lat="45.73164" lon="5.8172">
        <ele>879</ele>
        <time>2023-04-09T23:24:53Z</time>
      </trkpt>
      <trkpt lat="45.73173" lon="5.81718">
        <ele>879</ele>
        <time>2023-04-09T23:25:05Z</time>
      </trkpt>
      <trkpt lat="45.732" lon="5.81733">
        <ele>884</ele>
        <time>2023-04-09T23:25:43Z</time>
      </trkpt>
      <trkpt lat="45.73208" lon="5.8174">
        <ele>887</ele>
        <time>2023-04-09T23:25:56Z</time>
      </trkpt>
      <trkpt lat="45.73236" lon="5.81748">
        <ele>892</ele>
        <time>2023-04-09T23:26:34Z</time>
      </trkpt>
      <trkpt lat="45.73255" lon="5.81744">
        <ele>892</ele>
        <time>2023-04-09T23:27:00Z</time>
      </trkpt>
      <trkpt lat="45.73274" lon="5.81746">
        <ele>894</ele>
        <time>2023-04-09T23:27:25Z</time>
      </trkpt>
      <trkpt lat="45.733" lon="5.8173">
        <ele>889</ele>
        <time>2023-04-09T23:28:03Z</time>
      </trkpt>
      <trkpt lat="45.73319" lon="5.81722">
        <ele>886</ele>
        <time>2023-04-09T23:28:29Z</time>
      </trkpt>
      <trkpt lat="45.73347" lon="5.8172">
        <ele>887</ele>
        <time>2023-04-09T23:29:07Z</time>
      </trkpt>
      <trkpt lat="45.73356" lon="5.81716">
        <ele>886</ele>
        <time>2023-04-09T23:29:19Z</time>
      </trkpt>
      <trkpt lat="45.73365" lon="5.81719">
        <ele>888</ele>
        <time>2023-04-09T23:29:32Z</time>
      </trkpt>
      <trkpt lat="45.73373" lon="5.81727">
        <ele>892</ele>
        <time>2023-04-09T23:29:45Z</time>
      </trkpt>
      <trkpt lat="45.73393" lon="5.81726">
        <ele>893</ele>
        <time>2023-04-09T23:30:11Z</time>
      </trkpt>
      <trkpt lat="45.73421" lon="5.81729">
        <ele>897</ele>
        <time>2023-04-09T23:30:49Z</time>
      </trkpt>
      <trkpt lat="45.7343" lon="5.81727">
        <ele>896</ele>
        <time>2023-04-09T23:31:01Z</time>
      </trkpt>
      <trkpt lat="45.7344" lon="5.81729">
        <ele>898</ele>
        <time>2023-04-09T23:31:14Z</time>
      </trkpt>
      <trkpt lat="45.73466" lon="5.81711">
        <ele>893</ele>
        <time>2023-04-09T23:31:53Z</time>
      </trkpt>
      <trkpt lat="45.73495" lon="5.81706">
        <ele>893</ele>
        <time>2023-04-09T23:32:32Z</time>
      </trkpt>
      <trkpt lat="45.73511" lon="5.81691">
        <ele>891</ele>
        <time>2023-04-09T23:32:57Z</time>
      </trkpt>
      <trkpt lat="45.73511" lon="5.81685">
        <ele>889</ele>
        <time>2023-04-09T23:33:03Z</time>
      </trkpt>
      <trkpt lat="45.73509" lon="5.81686">
        <ele>889</ele>
        <time>2023-04-09T23:33:06Z</time>
      </trkpt>
      <trkpt lat="45.73509" lon="5.81684">
        <ele>888</ele>
        <time>2023-04-09T23:33:08Z</time>
      </trkpt>
      <trkpt lat="45.73513" lon="5.81678">
        <ele>887</ele>
        <time>2023-04-09T23:33:15Z</time>
      </trkpt>
      <trkpt lat="45.73505" lon="5.81683">
        <ele>887</ele>
        <time>2023-04-09T23:33:27Z</time>
      </trkpt>
      <trkpt lat="45.73508" lon="5.81678">
        <ele>886</ele>
        <time>2023-04-09T23:33:33Z</time>
      </trkpt>
      <trkpt lat="45.73516" lon="5.81684">
        <ele>890</ele>
        <time>2023-04-09T23:33:45Z</time>
      </trkpt>
      <trkpt lat="45.73525" lon="5.81684">
        <ele>892</ele>
        <time>2023-04-09T23:33:57Z</time>
      </trkpt>
      <trkpt lat="45.73529" lon="5.81674">
        <ele>889</ele>
        <time>2023-04-09T23:34:08Z</time>
      </trkpt>
      <trkpt lat="45.73543" lon="5.81653">
        <ele>886</ele>
        <time>2023-04-09T23:34:35Z</time>
      </trkpt>
      <trkpt lat="45.73558" lon="5.81638">
        <ele>885</ele>
        <time>2023-04-09T23:34:59Z</time>
      </trkpt>
      <trkpt lat="45.73582" lon="5.81592">
        <ele>878</ele>
        <time>2023-04-09T23:35:53Z</time>
      </trkpt>
      <trkpt lat="45.73605" lon="5.81568">
        <ele>873</ele>
        <time>2023-04-09T23:36:31Z</time>
      </trkpt>
      <trkpt lat="45.73639" lon="5.81539">
        <ele>868</ele>
        <time>2023-04-09T23:37:24Z</time>
      </trkpt>
      <trkpt lat="45.73676" lon="5.81521">
        <ele>865</ele>
        <time>2023-04-09T23:38:16Z</time>
      </trkpt>
      <trkpt lat="45.73691" lon="5.81507">
        <ele>861</ele>
        <time>2023-04-09T23:38:40Z</time>
      </trkpt>
      <trkpt lat="45.73709" lon="5.81497">
        <ele>857</ele>
        <time>2023-04-09T23:39:05Z</time>
      </trkpt>
      <trkpt lat="45.73716" lon="5.81488">
        <ele>854</ele>
        <time>2023-04-09T23:39:18Z</time>
      </trkpt>
      <trkpt lat="45.73751" lon="5.81468">
        <ele>846</ele>
        <time>2023-04-09T23:40:08Z</time>
      </trkpt>
      <trkpt lat="45.7377" lon="5.81475">
        <ele>846</ele>
        <time>2023-04-09T23:40:34Z</time>
      </trkpt>
      <trkpt lat="45.73779" lon="5.81482">
        <ele>847</ele>
        <time>2023-04-09T23:40:48Z</time>
      </trkpt>
      <trkpt lat="45.73779" lon="5.81475">
        <ele>844</ele>
        <time>2023-04-09T23:40:55Z</time>
      </trkpt>
      <trkpt lat="45.73794" lon="5.81491">
        <ele>847</ele>
        <time>2023-04-09T23:41:20Z</time>
      </trkpt>
      <trkpt lat="45.73804" lon="5.81492">
        <ele>846</ele>
        <time>2023-04-09T23:41:33Z</time>
      </trkpt>
      <trkpt lat="45.73813" lon="5.81497">
        <ele>846</ele>
        <time>2023-04-09T23:41:46Z</time>
      </trkpt>
      <trkpt lat="45.73822" lon="5.81496">
        <ele>844</ele>
        <time>2023-04-09T23:41:58Z</time>
      </trkpt>
      <trkpt lat="45.73832" lon="5.81499">
        <ele>844</ele>
        <time>2023-04-09T23:42:12Z</time>
      </trkpt>
      <trkpt lat="45.73852" lon="5.81498">
        <ele>841</ele>
        <time>2023-04-09T23:42:38Z</time>
      </trkpt>
      <trkpt lat="45.73861" lon="5.81495">
        <ele>838</ele>
        <time>2023-04-09T23:42:51Z</time>
      </trkpt>
      <trkpt lat="45.7387" lon="5.81498">
        <ele>838</ele>
        <time>2023-04-09T23:43:03Z</time>
      </trkpt>
      <trkpt lat="45.7388" lon="5.81499">
        <ele>837</ele>
        <time>2023-04-09T23:43:16Z</time>
      </trkpt>
      <trkpt lat="45.73889" lon="5.81497">
        <ele>835</ele>
        <time>2023-04-09T23:43:28Z</time>
      </trkpt>
      <trkpt lat="45.73899" lon="5.81499">
        <ele>834</ele>
        <time>2023-04-09T23:43:42Z</time>
      </trkpt>
      <trkpt lat="45.73913" lon="5.81495">
        <ele>831</ele>
        <time>2023-04-09T23:44:01Z</time>
      </trkpt>
      <trkpt lat="45.73942" lon="5.81498">
        <ele>824</ele>
        <time>2023-04-09T23:44:40Z</time>
      </trkpt>
      <trkpt lat="45.73951" lon="5.81503">
        <ele>823</ele>
        <time>2023-04-09T23:44:53Z</time>
      </trkpt>
      <trkpt lat="45.7396" lon="5.81503">
        <ele>820</ele>
        <time>2023-04-09T23:45:05Z</time>
      </trkpt>
      <trkpt lat="45.74016" lon="5.81521">
        <ele>813</ele>
        <time>2023-04-09T23:46:21Z</time>
      </trkpt>
      <trkpt lat="45.74043" lon="5.81534">
        <ele>811</ele>
        <time>2023-04-09T23:46:59Z</time>
      </trkpt>
      <trkpt lat="45.74053" lon="5.81535">
        <ele>809</ele>
        <time>2023-04-09T23:47:13Z</time>
      </trkpt>
      <trkpt lat="45.74062" lon="5.81542">
        <ele>809</ele>
        <time>2023-04-09T23:47:26Z</time>
      </trkpt>
      <trkpt lat="45.74071" lon="5.81542">
        <ele>807</ele>
        <time>2023-04-09T23:47:38Z</time>
      </trkpt>
      <trkpt lat="45.7409" lon="5.8155">
        <ele>805</ele>
        <time>2023-04-09T23:48:05Z</time>
      </trkpt>
      <trkpt lat="45.74106" lon="5.81566">
        <ele>807</ele>
        <time>2023-04-09T23:48:31Z</time>
      </trkpt>
      <trkpt lat="45.74109" lon="5.81579">
        <ele>809</ele>
        <time>2023-04-09T23:48:44Z</time>
      </trkpt>
      <trkpt lat="45.74116" lon="5.8159">
        <ele>811</ele>
        <time>2023-04-09T23:48:57Z</time>
      </trkpt>
      <trkpt lat="45.74125" lon="5.81597">
        <ele>811</ele>
        <time>2023-04-09T23:49:11Z</time>
      </trkpt>
      <trkpt lat="45.74134" lon="5.81594">
        <ele>808</ele>
        <time>2023-04-09T23:49:23Z</time>
      </trkpt>
      <trkpt lat="45.74152" lon="5.81602">
        <ele>806</ele>
        <time>2023-04-09T23:49:49Z</time>
      </trkpt>
      <trkpt lat="45.7416" lon="5.81596">
        <ele>803</ele>
        <time>2023-04-09T23:50:01Z</time>
      </trkpt>
      <trkpt lat="45.74164" lon="5.81598">
        <ele>802</ele>
        <time>2023-04-09T23:50:06Z</time>
      </trkpt>
      <trkpt lat="45.74159" lon="5.81589">
        <ele>802</ele>
        <time>2023-04-09T23:50:17Z</time>
      </trkpt>
      <trkpt lat="45.74161" lon="5.81588">
        <ele>801</ele>
        <time>2023-04-09T23:50:20Z</time>
      </trkpt>
      <trkpt lat="45.74175" lon="5.81625">
        <ele>806</ele>
        <time>2023-04-09T23:50:59Z</time>
      </trkpt>
      <trkpt lat="45.74184" lon="5.81662">
        <ele>811</ele>
        <time>2023-04-09T23:51:35Z</time>
      </trkpt>
      <trkpt lat="45.74194" lon="5.81685">
        <ele>812</ele>
        <time>2023-04-09T23:52:01Z</time>
      </trkpt>
      <trkpt lat="45.74197" lon="5.81711">
        <ele>814</ele>
        <time>2023-04-09T23:52:25Z</time>
      </trkpt>
      <trkpt lat="45.74189" lon="5.81749">
        <ele>818</ele>
        <time>2023-04-09T23:53:02Z</time>
      </trkpt>
      <trkpt lat="45.74173" lon="5.81783">
        <ele>820</ele>
        <time>2023-04-09T23:53:40Z</time>
      </trkpt>
      <trkpt lat="45.74171" lon="5.81796">
        <ele>820</ele>
        <time>2023-04-09T23:53:53Z</time>
      </trkpt>
      <trkpt lat="45.74174" lon="5.81837">
        <ele>820</ele>
        <time>2023-04-09T23:54:31Z</time>
      </trkpt>
      <trkpt lat="45.74184" lon="5.81838">
        <ele>818</ele>
        <time>2023-04-09T23:54:45Z</time>
      </trkpt>
      <trkpt lat="45.74176" lon="5.81838">
        <ele>819</ele>
        <time>2023-04-09T23:54:55Z</time>
      </trkpt>
      <trkpt lat="45.74168" lon="5.81847">
        <ele>820</ele>
        <time>2023-04-09T23:55:09Z</time>
      </trkpt>
      <trkpt lat="45.74174" lon="5.81841">
        <ele>819</ele>
        <time>2023-04-09T23:55:19Z</time>
      </trkpt>
      <trkpt lat="45.74145" lon="5.81859">
        <ele>832</ele>
        <time>2023-04-09T23:56:01Z</time>
      </trkpt>
      <trkpt lat="45.74131" lon="5.81876">
        <ele>839</ele>
        <time>2023-04-09T23:56:25Z</time>
      </trkpt>
      <trkpt lat="45.74105" lon="5.81883">
        <ele>854</ele>
        <time>2023-04-09T23:57:01Z</time>
      </trkpt>
      <trkpt lat="45.74092" lon="5.81895">
        <ele>861</ele>
        <time>2023-04-09T23:57:21Z</time>
      </trkpt>
      <trkpt lat="45.74097" lon="5.81906">
        <ele>858</ele>
        <time>2023-04-09T23:57:33Z</time>
      </trkpt>
      <trkpt lat="45.74089" lon="5.81913">
        <ele>862</ele>
        <time>2023-04-09T23:57:46Z</time>
      </trkpt>
      <trkpt lat="45.74091" lon="5.81926">
        <ele>859</ele>
        <time>2023-04-09T23:57:58Z</time>
      </trkpt>
      <trkpt lat="45.74084" lon="5.81938">
        <ele>862</ele>
        <time>2023-04-09T23:58:13Z</time>
      </trkpt>
      <trkpt lat="45.74081" lon="5.8195">
        <ele>864</ele>
        <time>2023-04-09T23:58:25Z</time>
      </trkpt>
      <trkpt lat="45.74073" lon="5.81957">
        <ele>871</ele>
        <time>2023-04-09T23:58:37Z</time>
      </trkpt>
      <trkpt lat="45.74058" lon="5.81991">
        <ele>884</ele>
        <time>2023-04-09T23:59:15Z</time>
      </trkpt>
      <trkpt lat="45.74058" lon="5.82005">
        <ele>883</ele>
        <time>2023-04-09T23:59:28Z</time>
      </trkpt>
      <trkpt lat="45.7407" lon="5.82017">
        <ele>870</ele>
        <time>2023-04-09T23:59:47Z</time>
      </trkpt>
      <trkpt lat="45.7406" lon="5.8204">
        <ele>881</ele>
        <time>2023-04-10T00:00:13Z</time>
      </trkpt>
      <trkpt lat="45.74061" lon="5.82066">
        <ele>880</ele>
        <time>2023-04-10T00:00:37Z</time>
      </trkpt>
      <trkpt lat="45.74057" lon="5.82103">
        <ele>885</ele>
        <time>2023-04-10T00:01:12Z</time>
      </trkpt>
      <trkpt lat="45.74058" lon="5.82116">
        <ele>884</ele>
        <time>2023-04-10T00:01:24Z</time>
      </trkpt>
      <trkpt lat="45.74067" lon="5.82123">
        <ele>879</ele>
        <time>2023-04-10T00:01:38Z</time>
      </trkpt>
      <trkpt lat="45.74083" lon="5.82126">
        <ele>868</ele>
        <time>2023-04-10T00:01:59Z</time>
      </trkpt>
      <trkpt lat="45.7409" lon="5.82119">
        <ele>864</ele>
        <time>2023-04-10T00:02:10Z</time>
      </trkpt>
      <trkpt lat="45.7409" lon="5.82123">
        <ele>864</ele>
        <time>2023-04-10T00:02:14Z</time>
      </trkpt>
      <trkpt lat="45.74098" lon="5.82117">
        <ele>859</ele>
        <time>2023-04-10T00:02:26Z</time>
      </trkpt>
      <trkpt lat="45.74083" lon="5.8215">
        <ele>871</ele>
        <time>2023-04-10T00:03:03Z</time>
      </trkpt>
      <trkpt lat="45.74084" lon="5.82164">
        <ele>871</ele>
        <time>2023-04-10T00:03:16Z</time>
      </trkpt>
      <trkpt lat="45.74091" lon="5.82189">
        <ele>868</ele>
        <time>2023-04-10T00:03:41Z</time>
      </trkpt>
      <trkpt lat="45.7409" lon="5.82202">
        <ele>869</ele>
        <time>2023-04-10T00:03:53Z</time>
      </trkpt>
      <trkpt lat="45.7408" lon="5.82241">
        <ele>875</ele>
        <time>2023-04-10T00:04:32Z</time>
      </trkpt>
      <trkpt lat="45.74082" lon="5.82255">
        <ele>874</ele>
        <time>2023-04-10T00:04:45Z</time>
      </trkpt>
      <trkpt lat="45.74094" lon="5.82275">
        <ele>870</ele>
        <time>2023-04-10T00:05:10Z</time>
      </trkpt>
      <trkpt lat="45.74091" lon="5.82288">
        <ele>872</ele>
        <time>2023-04-10T00:05:23Z</time>
      </trkpt>
      <trkpt lat="45.74081" lon="5.82303">
        <ele>878</ele>
        <time>2023-04-10T00:05:42Z</time>
      </trkpt>
      <trkpt lat="45.7408" lon="5.8234">
        <ele>880</ele>
        <time>2023-04-10T00:06:16Z</time>
      </trkpt>
      <trkpt lat="45.74074" lon="5.8235">
        <ele>882</ele>
        <time>2023-04-10T00:06:29Z</time>
      </trkpt>
      <trkpt lat="45.74067" lon="5.82375">
        <ele>884</ele>
        <time>2023-04-10T00:06:54Z</time>
      </trkpt>
      <trkpt lat="45.74069" lon="5.82388">
        <ele>882</ele>
        <time>2023-04-10T00:07:06Z</time>
      </trkpt>
      <trkpt lat="45.74067" lon="5.82415">
        <ele>882</ele>
        <time>2023-04-10T00:07:31Z</time>
      </trkpt>
      <trkpt lat="45.7406" lon="5.82424">
        <ele>883</ele>
        <time>2023-04-10T00:07:44Z</time>
      </trkpt>
      <trkpt lat="45.74061" lon="5.82438">
        <ele>881</ele>
        <time>2023-04-10T00:07:57Z</time>
      </trkpt>
      <trkpt lat="45.74054" lon="5.82441">
        <ele>883</ele>
        <time>2023-04-10T00:08:07Z</time>
      </trkpt>
      <trkpt lat="45.74044" lon="5.8244">
        <ele>887</ele>
        <time>2023-04-10T00:08:20Z</time>
      </trkpt>
      <trkpt lat="45.74038" lon="5.8245">
        <ele>887</ele>
        <time>2023-04-10T00:08:33Z</time>
      </trkpt>
      <trkpt lat="45.74029" lon="5.82455">
        <ele>889</ele>
        <time>2023-04-10T00:08:45Z</time>
      </trkpt>
      <trkpt lat="45.74031" lon="5.82454">
        <ele>889</ele>
        <time>2023-04-10T00:08:48Z</time>
      </trkpt>
      <trkpt lat="45.74015" lon="5.82454">
        <ele>894</ele>
        <time>2023-04-10T00:09:10Z</time>
      </trkpt>
      <trkpt lat="45.74013" lon="5.82451">
        <ele>896</ele>
        <time>2023-04-10T00:09:13Z</time>
      </trkpt>
      <trkpt lat="45.73998" lon="5.82469">
        <ele>898</ele>
        <time>2023-04-10T00:09:40Z</time>
      </trkpt>
      <trkpt lat="45.73992" lon="5.82479">
        <ele>897</ele>
        <time>2023-04-10T00:09:52Z</time>
      </trkpt>
      <trkpt lat="45.73986" lon="5.82505">
        <ele>894</ele>
        <time>2023-04-10T00:10:17Z</time>
      </trkpt>
      <trkpt lat="45.73974" lon="5.82527">
        <ele>893</ele>
        <time>2023-04-10T00:10:43Z</time>
      </trkpt>
      <trkpt lat="45.73973" lon="5.82541">
        <ele>891</ele>
        <time>2023-04-10T00:10:56Z</time>
      </trkpt>
      <trkpt lat="45.73965" lon="5.82568">
        <ele>887</ele>
        <time>2023-04-10T00:11:24Z</time>
      </trkpt>
      <trkpt lat="45.73964" lon="5.82582">
        <ele>885</ele>
        <time>2023-04-10T00:11:37Z</time>
      </trkpt>
      <trkpt lat="45.73959" lon="5.82592">
        <ele>884</ele>
        <time>2023-04-10T00:11:48Z</time>
      </trkpt>
      <trkpt lat="45.73943" lon="5.82607">
        <ele>883</ele>
        <time>2023-04-10T00:12:14Z</time>
      </trkpt>
      <trkpt lat="45.73923" lon="5.82612">
        <ele>886</ele>
        <time>2023-04-10T00:12:41Z</time>
      </trkpt>
      <trkpt lat="45.73916" lon="5.82622">
        <ele>885</ele>
        <time>2023-04-10T00:12:54Z</time>
      </trkpt>
      <trkpt lat="45.73924" lon="5.82631">
        <ele>882</ele>
        <time>2023-04-10T00:13:08Z</time>
      </trkpt>
      <trkpt lat="45.73921" lon="5.82638">
        <ele>881</ele>
        <time>2023-04-10T00:13:15Z</time>
      </trkpt>
      <trkpt lat="45.73917" lon="5.82641">
        <ele>881</ele>
        <time>2023-04-10T00:13:21Z</time>
      </trkpt>
      <trkpt lat="45.73925" lon="5.82642">
        <ele>880</ele>
        <time>2023-04-10T00:13:32Z</time>
      </trkpt>
      <trkpt lat="45.73917" lon="5.82647">
        <ele>880</ele>
        <time>2023-04-10T00:13:44Z</time>
      </trkpt>
      <trkpt lat="45.73907" lon="5.82646">
        <ele>882</ele>
        <time>2023-04-10T00:13:57Z</time>
      </trkpt>
      <trkpt lat="45.739" lon="5.82654">
        <ele>882</ele>
        <time>2023-04-10T00:14:09Z</time>
      </trkpt>
      <trkpt lat="45.73888" lon="5.82691">
        <ele>877</ele>
        <time>2023-04-10T00:14:47Z</time>
      </trkpt>
      <trkpt lat="45.73876" lon="5.82713">
        <ele>875</ele>
        <time>2023-04-10T00:15:13Z</time>
      </trkpt>
      <trkpt lat="45.73863" lon="5.8275">
        <ele>870</ele>
        <time>2023-04-10T00:15:52Z</time>
      </trkpt>
      <trkpt lat="45.73864" lon="5.82764">
        <ele>867</ele>
        <time>2023-04-10T00:16:05Z</time>
      </trkpt>
      <trkpt lat="45.73875" lon="5.82802">
        <ele>857</ele>
        <time>2023-04-10T00:16:43Z</time>
      </trkpt>
      <trkpt lat="45.73875" lon="5.82815">
        <ele>855</ele>
        <time>2023-04-10T00:16:55Z</time>
      </trkpt>
      <trkpt lat="45.73869" lon="5.82825">
        <ele>854</ele>
        <time>2023-04-10T00:17:07Z</time>
      </trkpt>
      <trkpt lat="45.7386" lon="5.8285">
        <ele>852</ele>
        <time>2023-04-10T00:17:34Z</time>
      </trkpt>
      <trkpt lat="45.73859" lon="5.82864">
        <ele>849</ele>
        <time>2023-04-10T00:17:47Z</time>
      </trkpt>
      <trkpt lat="45.73851" lon="5.82888">
        <ele>846</ele>
        <time>2023-04-10T00:18:12Z</time>
      </trkpt>
      <trkpt lat="45.73835" lon="5.82903">
        <ele>848</ele>
        <time>2023-04-10T00:18:37Z</time>
      </trkpt>
      <trkpt lat="45.73822" lon="5.82952">
        <ele>843</ele>
        <time>2023-04-10T00:19:26Z</time>
      </trkpt>
      <trkpt lat="45.73828" lon="5.82961">
        <ele>839</ele>
        <time>2023-04-10T00:19:37Z</time>
      </trkpt>
      <trkpt lat="45.73838" lon="5.82964">
        <ele>835</ele>
        <time>2023-04-10T00:19:51Z</time>
      </trkpt>
      <trkpt lat="45.73846" lon="5.82956">
        <ele>834</ele>
        <time>2023-04-10T00:20:04Z</time>
      </trkpt>
      <trkpt lat="45.7385" lon="5.82944">
        <ele>835</ele>
        <time>2023-04-10T00:20:17Z</time>
      </trkpt>
      <trkpt lat="45.73868" lon="5.82938">
        <ele>831</ele>
        <time>2023-04-10T00:20:41Z</time>
      </trkpt>
      <trkpt lat="45.73876" lon="5.8293">
        <ele>830</ele>
        <time>2023-04-10T00:20:54Z</time>
      </trkpt>
      <trkpt lat="45.73885" lon="5.82929">
        <ele>828</ele>
        <time>2023-04-10T00:21:06Z</time>
      </trkpt>
      <trkpt lat="45.73875" lon="5.8295">
        <ele>826</ele>
        <time>2023-04-10T00:21:30Z</time>
      </trkpt>
      <trkpt lat="45.7387" lon="5.82991">
        <ele>819</ele>
        <time>2023-04-10T00:22:09Z</time>
      </trkpt>
      <trkpt lat="45.73874" lon="5.83003">
        <ele>815</ele>
        <time>2023-04-10T00:22:21Z</time>
      </trkpt>
      <trkpt lat="45.73883" lon="5.8301">
        <ele>811</ele>
        <time>2023-04-10T00:22:35Z</time>
      </trkpt>
      <trkpt lat="45.73894" lon="5.83013">
        <ele>807</ele>
        <time>2023-04-10T00:22:50Z</time>
      </trkpt>
      <trkpt lat="45.73913" lon="5.83014">
        <ele>801</ele>
        <time>2023-04-10T00:23:15Z</time>
      </trkpt>
      <trkpt lat="45.73923" lon="5.83012">
        <ele>799</ele>
        <time>2023-04-10T00:23:29Z</time>
      </trkpt>
      <trkpt lat="45.73945" lon="5.83002">
        <ele>797</ele>
        <time>2023-04-10T00:23:59Z</time>
      </trkpt>
      <trkpt lat="45.73955" lon="5.8298">
        <ele>799</ele>
        <time>2023-04-10T00:24:24Z</time>
      </trkpt>
      <trkpt lat="45.73968" lon="5.82961">
        <ele>801</ele>
        <time>2023-04-10T00:24:49Z</time>
      </trkpt>
      <trkpt lat="45.73977" lon="5.82957">
        <ele>799</ele>
        <time>2023-04-10T00:25:01Z</time>
      </trkpt>
      <trkpt lat="45.73988" lon="5.82958">
        <ele>797</ele>
        <time>2023-04-10T00:25:16Z</time>
      </trkpt>
      <trkpt lat="45.73997" lon="5.82955">
        <ele>796</ele>
        <time>2023-04-10T00:25:28Z</time>
      </trkpt>
      <trkpt lat="45.73987" lon="5.82956">
        <ele>798</ele>
        <time>2023-04-10T00:25:42Z</time>
      </trkpt>
      <trkpt lat="45.73991" lon="5.82962">
        <ele>796</ele>
        <time>2023-04-10T00:25:49Z</time>
      </trkpt>
      <trkpt lat="45.74001" lon="5.82966">
        <ele>793</ele>
        <time>2023-04-10T00:26:03Z</time>
      </trkpt>
      <trkpt lat="45.7401" lon="5.82966">
        <ele>791</ele>
        <time>2023-04-10T00:26:15Z</time>
      </trkpt>
      <trkpt lat="45.74018" lon="5.82973">
        <ele>789</ele>
        <time>2023-04-10T00:26:28Z</time>
      </trkpt>
      <trkpt lat="45.74045" lon="5.82968">
        <ele>785</ele>
        <time>2023-04-10T00:27:04Z</time>
      </trkpt>
      <trkpt lat="45.74054" lon="5.82964">
        <ele>783</ele>
        <time>2023-04-10T00:27:17Z</time>
      </trkpt>
      <trkpt lat="45.7406" lon="5.82954">
        <ele>782</ele>
        <time>2023-04-10T00:27:29Z</time>
      </trkpt>
      <trkpt lat="45.74076" lon="5.82939">
        <ele>779</ele>
        <time>2023-04-10T00:27:54Z</time>
      </trkpt>
      <trkpt lat="45.74094" lon="5.82931">
        <ele>775</ele>
        <time>2023-04-10T00:28:19Z</time>
      </trkpt>
      <trkpt lat="45.74142" lon="5.82937">
        <ele>763</ele>
        <time>2023-04-10T00:29:24Z</time>
      </trkpt>
      <trkpt lat="45.7416" lon="5.82945">
        <ele>759</ele>
        <time>2023-04-10T00:29:49Z</time>
      </trkpt>
      <trkpt lat="45.74169" lon="5.82945">
        <ele>757</ele>
        <time>2023-04-10T00:30:01Z</time>
      </trkpt>
      <trkpt lat="45.74204" lon="5.82971">
        <ele>752</ele>
        <time>2023-04-10T00:30:54Z</time>
      </trkpt>
      <trkpt lat="45.74233" lon="5.82981">
        <ele>747</ele>
        <time>2023-04-10T00:31:33Z</time>
      </trkpt>
      <trkpt lat="45.74243" lon="5.8298">
        <ele>745</ele>
        <time>2023-04-10T00:31:47Z</time>
      </trkpt>
      <trkpt lat="45.74269" lon="5.82991">
        <ele>743</ele>
        <time>2023-04-10T00:32:23Z</time>
      </trkpt>
      <trkpt lat="45.74278" lon="5.82992">
        <ele>742</ele>
        <time>2023-04-10T00:32:35Z</time>
      </trkpt>
      <trkpt lat="45.74287" lon="5.82988">
        <ele>742</ele>
        <time>2023-04-10T00:32:48Z</time>
      </trkpt>
      <trkpt lat="45.74292" lon="5.82976">
        <ele>741</ele>
        <time>2023-04-10T00:33:01Z</time>
      </trkpt>
      <trkpt lat="45.74307" lon="5.8296">
        <ele>740</ele>
        <time>2023-04-10T00:33:26Z</time>
      </trkpt>
      <trkpt lat="45.74322" lon="5.82926">
        <ele>739</ele>
        <time>2023-04-10T00:34:03Z</time>
      </trkpt>
      <trkpt lat="45.7433" lon="5.82918">
        <ele>739</ele>
        <time>2023-04-10T00:34:16Z</time>
      </trkpt>
      <trkpt lat="45.74357" lon="5.82902">
        <ele>737</ele>
        <time>2023-04-10T00:34:55Z</time>
      </trkpt>
      <trkpt lat="45.74375" lon="5.82901">
        <ele>736</ele>
        <time>2023-04-10T00:35:19Z</time>
      </trkpt>
      <trkpt lat="45.74394" lon="5.82893">
        <ele>734</ele>
        <time>2023-04-10T00:35:45Z</time>
      </trkpt>
      <trkpt lat="45.74403" lon="5.82895">
        <ele>733</ele>
        <time>2023-04-10T00:35:58Z</time>
      </trkpt>
      <trkpt lat="45.74413" lon="5.82894">
        <ele>733</ele>
        <time>2023-04-10T00:36:11Z</time>
      </trkpt>
      <trkpt lat="45.74422" lon="5.82889">
        <ele>732</ele>
        <time>2023-04-10T00:36:24Z</time>
      </trkpt>
      <trkpt lat="45.74423" lon="5.82892">
        <ele>732</ele>
        <time>2023-04-10T00:36:27Z</time>
      </trkpt>
      <trkpt lat="45.74428" lon="5.82891">
        <ele>732</ele>
        <time>2023-04-10T00:36:34Z</time>
      </trkpt>
      <trkpt lat="45.74436" lon="5.82885">
        <ele>731</ele>
        <time>2023-04-10T00:36:46Z</time>
      </trkpt>
      <trkpt lat="45.74455" lon="5.82887">
        <ele>731</ele>
        <time>2023-04-10T00:37:11Z</time>
      </trkpt>
      <trkpt lat="45.74467" lon="5.82879">
        <ele>731</ele>
        <time>2023-04-10T00:37:29Z</time>
      </trkpt>
      <trkpt lat="45.74504" lon="5.82898">
        <ele>730</ele>
        <time>2023-04-10T00:38:21Z</time>
      </trkpt>
      <trkpt lat="45.74512" lon="5.82924">
        <ele>726</ele>
        <time>2023-04-10T00:38:48Z</time>
      </trkpt>
      <trkpt lat="45.74518" lon="5.82919">
        <ele>727</ele>
        <time>2023-04-10T00:38:57Z</time>
      </trkpt>
      <trkpt lat="45.74515" lon="5.82927">
        <ele>725</ele>
        <time>2023-04-10T00:39:05Z</time>
      </trkpt>
      <trkpt lat="45.74519" lon="5.82928">
        <ele>724</ele>
        <time>2023-04-10T00:39:11Z</time>
      </trkpt>
      <trkpt lat="45.74523" lon="5.82933">
        <ele>722</ele>
        <time>2023-04-10T00:39:18Z</time>
      </trkpt>
      <trkpt lat="45.74522" lon="5.8293">
        <ele>723</ele>
        <time>2023-04-10T00:39:21Z</time>
      </trkpt>
      <trkpt lat="45.74519" lon="5.82929">
        <ele>724</ele>
        <time>2023-04-10T00:39:25Z</time>
      </trkpt>
      <trkpt lat="45.74521" lon="5.82937">
        <ele>720</ele>
        <time>2023-04-10T00:39:33Z</time>
      </trkpt>
      <trkpt lat="45.74529" lon="5.82933">
        <ele>721</ele>
        <time>2023-04-10T00:39:44Z</time>
      </trkpt>
      <trkpt lat="45.74529" lon="5.82927">
        <ele>724</ele>
        <time>2023-04-10T00:39:50Z</time>
      </trkpt>
      <trkpt lat="45.74538" lon="5.82934">
        <ele>720</ele>
        <time>2023-04-10T00:40:04Z</time>
      </trkpt>
      <trkpt lat="45.74548" lon="5.82937">
        <ele>718</ele>
        <time>2023-04-10T00:40:17Z</time>
      </trkpt>
      <trkpt lat="45.74567" lon="5.82931">
        <ele>719</ele>
        <time>2023-04-10T00:40:43Z</time>
      </trkpt>
      <trkpt lat="45.74575" lon="5.82924">
        <ele>722</ele>
        <time>2023-04-10T00:40:56Z</time>
      </trkpt>
      <trkpt lat="45.74595" lon="5.82918">
        <ele>722</ele>
        <time>2023-04-10T00:41:23Z</time>
      </trkpt>
      <trkpt lat="45.74612" lon="5.82906">
        <ele>721</ele>
        <time>2023-04-10T00:41:48Z</time>
      </trkpt>
      <trkpt lat="45.74622" lon="5.82903">
        <ele>720</ele>
        <time>2023-04-10T00:42:02Z</time>
      </trkpt>
      <trkpt lat="45.74632" lon="5.82904">
        <ele>718</ele>
        <time>2023-04-10T00:42:15Z</time>
      </trkpt>
      <trkpt lat="45.7467" lon="5.82889">
        <ele>715</ele>
        <time>2023-04-10T00:43:08Z</time>
      </trkpt>
      <trkpt lat="45.74688" lon="5.82885">
        <ele>714</ele>
        <time>2023-04-10T00:43:32Z</time>
      </trkpt>
      <trkpt lat="45.74697" lon="5.82891">
        <ele>711</ele>
        <time>2023-04-10T00:43:45Z</time>
      </trkpt>
      <trkpt lat="45.74695" lon="5.82895">
        <ele>710</ele>
        <time>2023-04-10T00:43:50Z</time>
      </trkpt>
      <trkpt lat="45.74699" lon="5.82891">
        <ele>711</ele>
        <time>2023-04-10T00:43:57Z</time>
      </trkpt>
      <trkpt lat="45.74698" lon="5.82884">
        <ele>713</ele>
        <time>2023-04-10T00:44:03Z</time>
      </trkpt>
      <trkpt lat="45.74706" lon="5.82892">
        <ele>710</ele>
        <time>2023-04-10T00:44:16Z</time>
      </trkpt>
      <trkpt lat="45.74716" lon="5.82894">
        <ele>708</ele>
        <time>2023-04-10T00:44:30Z</time>
      </trkpt>
      <trkpt lat="45.74735" lon="5.82886">
        <ele>708</ele>
        <time>2023-04-10T00:44:56Z</time>
      </trkpt>
      <trkpt lat="45.74728" lon="5.82894">
        <ele>707</ele>
        <time>2023-04-10T00:45:08Z</time>
      </trkpt>
      <trkpt lat="45.74726" lon="5.82908">
        <ele>703</ele>
        <time>2023-04-10T00:45:21Z</time>
      </trkpt>
      <trkpt lat="45.74734" lon="5.82915">
        <ele>699</ele>
        <time>2023-04-10T00:45:34Z</time>
      </trkpt>
      <trkpt lat="45.74743" lon="5.82915">
        <ele>698</ele>
        <time>2023-04-10T00:45:46Z</time>
      </trkpt>
      <trkpt lat="45.74752" lon="5.82909">
        <ele>699</ele>
        <time>2023-04-10T00:45:59Z</time>
      </trkpt>
      <trkpt lat="45.74755" lon="5.82921">
        <ele>695</ele>
        <time>2023-04-10T00:46:11Z</time>
      </trkpt>
      <trkpt lat="45.74754" lon="5.82916">
        <ele>697</ele>
        <time>2023-04-10T00:46:16Z</time>
      </trkpt>
      <trkpt lat="45.74746" lon="5.82912">
        <ele>699</ele>
        <time>2023-04-10T00:46:27Z</time>
      </trkpt>
      <trkpt lat="45.74748" lon="5.82906">
        <ele>700</ele>
        <time>2023-04-10T00:46:33Z</time>
      </trkpt>
      <trkpt lat="45.74753" lon="5.82917">
        <ele>697</ele>
        <time>2023-04-10T00:46:46Z</time>
      </trkpt>
      <trkpt lat="45.74747" lon="5.82928">
        <ele>693</ele>
        <time>2023-04-10T00:46:59Z</time>
      </trkpt>
      <trkpt lat="45.74746" lon="5.82942">
        <ele>688</ele>
        <time>2023-04-10T00:47:12Z</time>
      </trkpt>
      <trkpt lat="45.74753" lon="5.82992">
        <ele>668</ele>
        <time>2023-04-10T00:47:59Z</time>
      </trkpt>
      <trkpt lat="45.7476" lon="5.83017">
        <ele>659</ele>
        <time>2023-04-10T00:48:24Z</time>
      </trkpt>
      <trkpt lat="45.74782" lon="5.83045">
        <ele>649</ele>
        <time>2023-04-10T00:49:04Z</time>
      </trkpt>
      <trkpt lat="45.74766" lon="5.8306">
        <ele>644</ele>
        <time>2023-04-10T00:49:29Z</time>
      </trkpt>
      <trkpt lat="45.74742" lon="5.83092">
        <ele>633</ele>
        <time>2023-04-10T00:50:13Z</time>
      </trkpt>
      <trkpt lat="45.74733" lon="5.83096">
        <ele>632</ele>
        <time>2023-04-10T00:50:25Z</time>
      </trkpt>
      <trkpt lat="45.74732" lon="5.831">
        <ele>631</ele>
        <time>2023-04-10T00:50:29Z</time>
      </trkpt>
      <trkpt lat="45.74722" lon="5.83102">
        <ele>629</ele>
        <time>2023-04-10T00:50:43Z</time>
      </trkpt>
      <trkpt lat="45.74703" lon="5.83112">
        <ele>625</ele>
        <time>2023-04-10T00:51:10Z</time>
      </trkpt>
      <trkpt lat="45.74711" lon="5.83118">
        <ele>624</ele>
        <time>2023-04-10T00:51:22Z</time>
      </trkpt>
      <trkpt lat="45.74714" lon="5.83131">
        <ele>621</ele>
        <time>2023-04-10T00:51:35Z</time>
      </trkpt>
      <trkpt lat="45.74741" lon="5.83183">
        <ele>612</ele>
        <time>2023-04-10T00:52:35Z</time>
      </trkpt>
      <trkpt lat="45.74748" lon="5.83223">
        <ele>603</ele>
        <time>2023-04-10T00:53:13Z</time>
      </trkpt>
      <trkpt lat="45.74755" lon="5.83232">
        <ele>600</ele>
        <time>2023-04-10T00:53:26Z</time>
      </trkpt>
      <trkpt lat="45.74808" lon="5.83275">
        <ele>570</ele>
        <time>2023-04-10T00:54:47Z</time>
      </trkpt>
      <trkpt lat="45.74805" lon="5.83256">
        <ele>581</ele>
        <time>2023-04-10T00:55:05Z</time>
      </trkpt>
      <trkpt lat="45.74815" lon="5.83269">
        <ele>571</ele>
        <time>2023-04-10T00:55:23Z</time>
      </trkpt>
      <trkpt lat="45.7483" lon="5.83272">
        <ele>566</ele>
        <time>2023-04-10T00:55:44Z</time>
      </trkpt>
      <trkpt lat="45.74825" lon="5.83256">
        <ele>576</ele>
        <time>2023-04-10T00:56:00Z</time>
      </trkpt>
      <trkpt lat="45.74806" lon="5.83243">
        <ele>586</ele>
        <time>2023-04-10T00:56:28Z</time>
      </trkpt>
      <trkpt lat="45.74799" lon="5.83231">
        <ele>592</ele>
        <time>2023-04-10T00:56:43Z</time>
      </trkpt>
      <trkpt lat="45.74801" lon="5.83218">
        <ele>596</ele>
        <time>2023-04-10T00:56:55Z</time>
      </trkpt>
      <trkpt lat="45.74808" lon="5.8321">
        <ele>598</ele>
        <time>2023-04-10T00:57:07Z</time>
      </trkpt>
      <trkpt lat="45.7482" lon="5.83204">
        <ele>598</ele>
        <time>2023-04-10T00:57:24Z</time>
      </trkpt>
      <trkpt lat="45.74828" lon="5.83194">
        <ele>601</ele>
        <time>2023-04-10T00:57:38Z</time>
      </trkpt>
      <trkpt lat="45.74837" lon="5.83195">
        <ele>599</ele>
        <time>2023-04-10T00:57:50Z</time>
      </trkpt>
      <trkpt lat="45.74857" lon="5.8319">
        <ele>597</ele>
        <time>2023-04-10T00:58:17Z</time>
      </trkpt>
      <trkpt lat="45.74886" lon="5.83198">
        <ele>588</ele>
        <time>2023-04-10T00:58:57Z</time>
      </trkpt>
      <trkpt lat="45.74879" lon="5.83189">
        <ele>593</ele>
        <time>2023-04-10T00:59:09Z</time>
      </trkpt>
      <trkpt lat="45.74883" lon="5.83198">
        <ele>588</ele>
        <time>2023-04-10T00:59:19Z</time>
      </trkpt>
      <trkpt lat="45.74891" lon="5.83196">
        <ele>587</ele>
        <time>2023-04-10T00:59:30Z</time>
      </trkpt>
      <trkpt lat="45.74895" lon="5.83183">
        <ele>593</ele>
        <time>2023-04-10T00:59:43Z</time>
      </trkpt>
      <trkpt lat="45.74908" lon="5.83169">
        <ele>597</ele>
        <time>2023-04-10T01:00:05Z</time>
      </trkpt>
      <trkpt lat="45.7491" lon="5.83172">
        <ele>595</ele>
        <time>2023-04-10T01:00:09Z</time>
      </trkpt>
      <trkpt lat="45.74928" lon="5.83163">
        <ele>595</ele>
        <time>2023-04-10T01:00:34Z</time>
      </trkpt>
      <trkpt lat="45.74942" lon="5.83145">
        <ele>599</ele>
        <time>2023-04-10T01:00:59Z</time>
      </trkpt>
    </trkseg>
  </trk>
</gpx>